<?xml version="1.0" encoding="UTF-8" standalone="no" ?>
<gpx xmlns="http://www.topografix.com/GPX/1/1" xmlns:xsi="http://www.w3.org/2001/XMLSchema-instance" xsi:schemaLocation="http://www.topografix.com/GPX/1/1 http://www.topografix.com/GPX/1/1/gpx.xsd" version="1.1" creator="VisuGPX - https://www.visugpx.com">
  <metadata>
    <name>RSPFY-bois de Rochefort</name>
    <desc><![CDATA[marche nordique dans le bois de Rochefort partant du carrefour de Luynes en passant par le point de vue sur la vallée (161m), le carrefour Emmanuel, le carrefour Sainte-Anne et le carrefour Elisabeth.]]></desc>
  </metadata>
  <trk>
    <name><![CDATA[2022-06-09 09:04]]></name>
    <desc><![CDATA[<p>Heure de départ: 09:04 9 juin 2022<br/>Heure d'arrivée: 11:36 9 juin 2022<br/>Distance: 12 km (02:32)<br/>Temps déplacement: 02:18<br/>Vitesse moyenne: 4,75 km/h<br/>Vitesse moyenne mouv.: 5,23 km/h<br/>Vitesse Max.: 7,78 km/h<br/>Altitude minimale: 112 m<br/>Altitude maximale: 161 m<br/>Vitesse de montée: 256,2 m/h<br/>Vitesse de descente: -247,7 m/h<br/>Gain d'altitude: 314 m<br/>Perte d'altitude: -314 m<br/>Temps de montée: 01:13<br/>Temps de descente: 01:16<br/></p><hr align="center" width="480" style="height: 2px; width: 517px"/>]]></desc>
    <trkseg>
      <trkpt lat="48.59173" lon="1.96597">
        <ele>116.2</ele>
        <time>2022-06-09T07:04:14Z</time>
      </trkpt>
      <trkpt lat="48.59166" lon="1.96587">
        <ele>116</ele>
        <time>2022-06-09T07:05:35Z</time>
      </trkpt>
      <trkpt lat="48.59157" lon="1.96583">
        <ele>115.3</ele>
        <time>2022-06-09T07:05:44Z</time>
      </trkpt>
      <trkpt lat="48.59153" lon="1.96596">
        <ele>115.2</ele>
        <time>2022-06-09T07:05:53Z</time>
      </trkpt>
      <trkpt lat="48.59153" lon="1.96611">
        <ele>115.5</ele>
        <time>2022-06-09T07:06:04Z</time>
      </trkpt>
      <trkpt lat="48.5915" lon="1.96624">
        <ele>115.1</ele>
        <time>2022-06-09T07:06:12Z</time>
      </trkpt>
      <trkpt lat="48.59148" lon="1.96637">
        <ele>114.7</ele>
        <time>2022-06-09T07:06:21Z</time>
      </trkpt>
      <trkpt lat="48.59147" lon="1.96653">
        <ele>114.6</ele>
        <time>2022-06-09T07:06:29Z</time>
      </trkpt>
      <trkpt lat="48.59147" lon="1.96668">
        <ele>114.6</ele>
        <time>2022-06-09T07:06:37Z</time>
      </trkpt>
      <trkpt lat="48.59148" lon="1.96682">
        <ele>114.7</ele>
        <time>2022-06-09T07:06:43Z</time>
      </trkpt>
      <trkpt lat="48.59146" lon="1.96697">
        <ele>114.5</ele>
        <time>2022-06-09T07:06:49Z</time>
      </trkpt>
      <trkpt lat="48.59139" lon="1.96709">
        <ele>114</ele>
        <time>2022-06-09T07:06:58Z</time>
      </trkpt>
      <trkpt lat="48.59138" lon="1.96725">
        <ele>114</ele>
        <time>2022-06-09T07:07:06Z</time>
      </trkpt>
      <trkpt lat="48.59135" lon="1.9674">
        <ele>113.9</ele>
        <time>2022-06-09T07:07:14Z</time>
      </trkpt>
      <trkpt lat="48.5913" lon="1.96751">
        <ele>113.7</ele>
        <time>2022-06-09T07:07:21Z</time>
      </trkpt>
      <trkpt lat="48.59125" lon="1.96763">
        <ele>113.7</ele>
        <time>2022-06-09T07:07:27Z</time>
      </trkpt>
      <trkpt lat="48.5912" lon="1.96776">
        <ele>113.6</ele>
        <time>2022-06-09T07:07:35Z</time>
      </trkpt>
      <trkpt lat="48.59114" lon="1.96788">
        <ele>113.2</ele>
        <time>2022-06-09T07:07:42Z</time>
      </trkpt>
      <trkpt lat="48.59111" lon="1.96802">
        <ele>113</ele>
        <time>2022-06-09T07:07:50Z</time>
      </trkpt>
      <trkpt lat="48.59107" lon="1.96815">
        <ele>113</ele>
        <time>2022-06-09T07:07:57Z</time>
      </trkpt>
      <trkpt lat="48.59104" lon="1.96829">
        <ele>113</ele>
        <time>2022-06-09T07:08:03Z</time>
      </trkpt>
      <trkpt lat="48.591" lon="1.96843">
        <ele>113</ele>
        <time>2022-06-09T07:08:09Z</time>
      </trkpt>
      <trkpt lat="48.59096" lon="1.96857">
        <ele>113</ele>
        <time>2022-06-09T07:08:16Z</time>
      </trkpt>
      <trkpt lat="48.59095" lon="1.96872">
        <ele>113</ele>
        <time>2022-06-09T07:08:23Z</time>
      </trkpt>
      <trkpt lat="48.5909" lon="1.96884">
        <ele>113</ele>
        <time>2022-06-09T07:08:30Z</time>
      </trkpt>
      <trkpt lat="48.59086" lon="1.96897">
        <ele>113</ele>
        <time>2022-06-09T07:08:37Z</time>
      </trkpt>
      <trkpt lat="48.5908" lon="1.96908">
        <ele>113</ele>
        <time>2022-06-09T07:08:43Z</time>
      </trkpt>
      <trkpt lat="48.59077" lon="1.96923">
        <ele>113</ele>
        <time>2022-06-09T07:08:50Z</time>
      </trkpt>
      <trkpt lat="48.59072" lon="1.96936">
        <ele>113</ele>
        <time>2022-06-09T07:08:57Z</time>
      </trkpt>
      <trkpt lat="48.59067" lon="1.96948">
        <ele>113</ele>
        <time>2022-06-09T07:09:04Z</time>
      </trkpt>
      <trkpt lat="48.59064" lon="1.96962">
        <ele>113</ele>
        <time>2022-06-09T07:09:11Z</time>
      </trkpt>
      <trkpt lat="48.59062" lon="1.96976">
        <ele>113</ele>
        <time>2022-06-09T07:09:17Z</time>
      </trkpt>
      <trkpt lat="48.59061" lon="1.96991">
        <ele>113</ele>
        <time>2022-06-09T07:09:23Z</time>
      </trkpt>
      <trkpt lat="48.59059" lon="1.97005">
        <ele>113</ele>
        <time>2022-06-09T07:09:30Z</time>
      </trkpt>
      <trkpt lat="48.59055" lon="1.97019">
        <ele>113</ele>
        <time>2022-06-09T07:09:38Z</time>
      </trkpt>
      <trkpt lat="48.59053" lon="1.97034">
        <ele>113</ele>
        <time>2022-06-09T07:09:46Z</time>
      </trkpt>
      <trkpt lat="48.59051" lon="1.97049">
        <ele>113</ele>
        <time>2022-06-09T07:09:55Z</time>
      </trkpt>
      <trkpt lat="48.59046" lon="1.97061">
        <ele>113</ele>
        <time>2022-06-09T07:10:01Z</time>
      </trkpt>
      <trkpt lat="48.59042" lon="1.97075">
        <ele>113</ele>
        <time>2022-06-09T07:10:07Z</time>
      </trkpt>
      <trkpt lat="48.59039" lon="1.97089">
        <ele>113</ele>
        <time>2022-06-09T07:10:14Z</time>
      </trkpt>
      <trkpt lat="48.59037" lon="1.97103">
        <ele>113</ele>
        <time>2022-06-09T07:10:20Z</time>
      </trkpt>
      <trkpt lat="48.59036" lon="1.97117">
        <ele>113</ele>
        <time>2022-06-09T07:10:25Z</time>
      </trkpt>
      <trkpt lat="48.59034" lon="1.97131">
        <ele>113</ele>
        <time>2022-06-09T07:10:31Z</time>
      </trkpt>
      <trkpt lat="48.59032" lon="1.97145">
        <ele>113</ele>
        <time>2022-06-09T07:10:38Z</time>
      </trkpt>
      <trkpt lat="48.59029" lon="1.9716">
        <ele>113</ele>
        <time>2022-06-09T07:10:45Z</time>
      </trkpt>
      <trkpt lat="48.59028" lon="1.97174">
        <ele>113</ele>
        <time>2022-06-09T07:10:51Z</time>
      </trkpt>
      <trkpt lat="48.59027" lon="1.97189">
        <ele>113</ele>
        <time>2022-06-09T07:10:58Z</time>
      </trkpt>
      <trkpt lat="48.59025" lon="1.97203">
        <ele>112.6</ele>
        <time>2022-06-09T07:11:05Z</time>
      </trkpt>
      <trkpt lat="48.59021" lon="1.97215">
        <ele>112.2</ele>
        <time>2022-06-09T07:11:10Z</time>
      </trkpt>
      <trkpt lat="48.59021" lon="1.9723">
        <ele>112</ele>
        <time>2022-06-09T07:11:17Z</time>
      </trkpt>
      <trkpt lat="48.59026" lon="1.97242">
        <ele>112</ele>
        <time>2022-06-09T07:11:22Z</time>
      </trkpt>
      <trkpt lat="48.59034" lon="1.97252">
        <ele>112.2</ele>
        <time>2022-06-09T07:11:28Z</time>
      </trkpt>
      <trkpt lat="48.59042" lon="1.97263">
        <ele>112.5</ele>
        <time>2022-06-09T07:11:35Z</time>
      </trkpt>
      <trkpt lat="48.59048" lon="1.97274">
        <ele>112.7</ele>
        <time>2022-06-09T07:11:41Z</time>
      </trkpt>
      <trkpt lat="48.59052" lon="1.97288">
        <ele>112.9</ele>
        <time>2022-06-09T07:11:48Z</time>
      </trkpt>
      <trkpt lat="48.5906" lon="1.97297">
        <ele>113.1</ele>
        <time>2022-06-09T07:11:55Z</time>
      </trkpt>
      <trkpt lat="48.59069" lon="1.97305">
        <ele>113.5</ele>
        <time>2022-06-09T07:12:02Z</time>
      </trkpt>
      <trkpt lat="48.59078" lon="1.97312">
        <ele>113.8</ele>
        <time>2022-06-09T07:12:09Z</time>
      </trkpt>
      <trkpt lat="48.59086" lon="1.97319">
        <ele>114</ele>
        <time>2022-06-09T07:12:16Z</time>
      </trkpt>
      <trkpt lat="48.59095" lon="1.97321">
        <ele>114</ele>
        <time>2022-06-09T07:12:22Z</time>
      </trkpt>
      <trkpt lat="48.59104" lon="1.97313">
        <ele>114</ele>
        <time>2022-06-09T07:12:29Z</time>
      </trkpt>
      <trkpt lat="48.59112" lon="1.97306">
        <ele>114</ele>
        <time>2022-06-09T07:12:35Z</time>
      </trkpt>
      <trkpt lat="48.59119" lon="1.97297">
        <ele>114.3</ele>
        <time>2022-06-09T07:12:41Z</time>
      </trkpt>
      <trkpt lat="48.59127" lon="1.97288">
        <ele>114.6</ele>
        <time>2022-06-09T07:12:47Z</time>
      </trkpt>
      <trkpt lat="48.59133" lon="1.97279">
        <ele>114.8</ele>
        <time>2022-06-09T07:12:54Z</time>
      </trkpt>
      <trkpt lat="48.5914" lon="1.97269">
        <ele>115.1</ele>
        <time>2022-06-09T07:13:01Z</time>
      </trkpt>
      <trkpt lat="48.59147" lon="1.97258">
        <ele>115.6</ele>
        <time>2022-06-09T07:13:08Z</time>
      </trkpt>
      <trkpt lat="48.59153" lon="1.97247">
        <ele>116</ele>
        <time>2022-06-09T07:13:15Z</time>
      </trkpt>
      <trkpt lat="48.59159" lon="1.97235">
        <ele>116.5</ele>
        <time>2022-06-09T07:13:22Z</time>
      </trkpt>
      <trkpt lat="48.59165" lon="1.97223">
        <ele>116.9</ele>
        <time>2022-06-09T07:13:29Z</time>
      </trkpt>
      <trkpt lat="48.5917" lon="1.97211">
        <ele>117.3</ele>
        <time>2022-06-09T07:13:35Z</time>
      </trkpt>
      <trkpt lat="48.59174" lon="1.97198">
        <ele>117.5</ele>
        <time>2022-06-09T07:13:42Z</time>
      </trkpt>
      <trkpt lat="48.5918" lon="1.97187">
        <ele>117.9</ele>
        <time>2022-06-09T07:13:49Z</time>
      </trkpt>
      <trkpt lat="48.59186" lon="1.97175">
        <ele>118.4</ele>
        <time>2022-06-09T07:13:56Z</time>
      </trkpt>
      <trkpt lat="48.59192" lon="1.97162">
        <ele>118.8</ele>
        <time>2022-06-09T07:14:03Z</time>
      </trkpt>
      <trkpt lat="48.59198" lon="1.97149">
        <ele>119.3</ele>
        <time>2022-06-09T07:14:08Z</time>
      </trkpt>
      <trkpt lat="48.59204" lon="1.97138">
        <ele>119.7</ele>
        <time>2022-06-09T07:14:14Z</time>
      </trkpt>
      <trkpt lat="48.59209" lon="1.97125">
        <ele>120</ele>
        <time>2022-06-09T07:14:21Z</time>
      </trkpt>
      <trkpt lat="48.59214" lon="1.97113">
        <ele>120.4</ele>
        <time>2022-06-09T07:14:28Z</time>
      </trkpt>
      <trkpt lat="48.59218" lon="1.97101">
        <ele>120.7</ele>
        <time>2022-06-09T07:14:35Z</time>
      </trkpt>
      <trkpt lat="48.59224" lon="1.9709">
        <ele>121.2</ele>
        <time>2022-06-09T07:14:42Z</time>
      </trkpt>
      <trkpt lat="48.59231" lon="1.97077">
        <ele>122</ele>
        <time>2022-06-09T07:14:48Z</time>
      </trkpt>
      <trkpt lat="48.59238" lon="1.97066">
        <ele>122.7</ele>
        <time>2022-06-09T07:14:54Z</time>
      </trkpt>
      <trkpt lat="48.59244" lon="1.97052">
        <ele>123.2</ele>
        <time>2022-06-09T07:15:00Z</time>
      </trkpt>
      <trkpt lat="48.59248" lon="1.9704">
        <ele>123.2</ele>
        <time>2022-06-09T07:15:06Z</time>
      </trkpt>
      <trkpt lat="48.59253" lon="1.97028">
        <ele>123.5</ele>
        <time>2022-06-09T07:15:12Z</time>
      </trkpt>
      <trkpt lat="48.59259" lon="1.97018">
        <ele>124.1</ele>
        <time>2022-06-09T07:15:18Z</time>
      </trkpt>
      <trkpt lat="48.59266" lon="1.97006">
        <ele>124.9</ele>
        <time>2022-06-09T07:15:25Z</time>
      </trkpt>
      <trkpt lat="48.59271" lon="1.96995">
        <ele>125.6</ele>
        <time>2022-06-09T07:15:32Z</time>
      </trkpt>
      <trkpt lat="48.59276" lon="1.96982">
        <ele>126.1</ele>
        <time>2022-06-09T07:15:39Z</time>
      </trkpt>
      <trkpt lat="48.59283" lon="1.96971">
        <ele>127.1</ele>
        <time>2022-06-09T07:15:46Z</time>
      </trkpt>
      <trkpt lat="48.59288" lon="1.96959">
        <ele>128.4</ele>
        <time>2022-06-09T07:15:53Z</time>
      </trkpt>
      <trkpt lat="48.59293" lon="1.96946">
        <ele>129.8</ele>
        <time>2022-06-09T07:16:03Z</time>
      </trkpt>
      <trkpt lat="48.59298" lon="1.96933">
        <ele>131.1</ele>
        <time>2022-06-09T07:16:10Z</time>
      </trkpt>
      <trkpt lat="48.59304" lon="1.96922">
        <ele>132.6</ele>
        <time>2022-06-09T07:16:18Z</time>
      </trkpt>
      <trkpt lat="48.5931" lon="1.9691">
        <ele>134.1</ele>
        <time>2022-06-09T07:16:25Z</time>
      </trkpt>
      <trkpt lat="48.59315" lon="1.96898">
        <ele>135.3</ele>
        <time>2022-06-09T07:16:33Z</time>
      </trkpt>
      <trkpt lat="48.59319" lon="1.96885">
        <ele>136.5</ele>
        <time>2022-06-09T07:16:42Z</time>
      </trkpt>
      <trkpt lat="48.59324" lon="1.96872">
        <ele>137.6</ele>
        <time>2022-06-09T07:16:49Z</time>
      </trkpt>
      <trkpt lat="48.59329" lon="1.96861">
        <ele>138.9</ele>
        <time>2022-06-09T07:16:56Z</time>
      </trkpt>
      <trkpt lat="48.59335" lon="1.96848">
        <ele>140</ele>
        <time>2022-06-09T07:17:03Z</time>
      </trkpt>
      <trkpt lat="48.5934" lon="1.96836">
        <ele>141.1</ele>
        <time>2022-06-09T07:17:09Z</time>
      </trkpt>
      <trkpt lat="48.59346" lon="1.96825">
        <ele>142.4</ele>
        <time>2022-06-09T07:17:17Z</time>
      </trkpt>
      <trkpt lat="48.59352" lon="1.96813">
        <ele>143.6</ele>
        <time>2022-06-09T07:17:24Z</time>
      </trkpt>
      <trkpt lat="48.59357" lon="1.96802">
        <ele>144.5</ele>
        <time>2022-06-09T07:17:31Z</time>
      </trkpt>
      <trkpt lat="48.59362" lon="1.9679">
        <ele>144.4</ele>
        <time>2022-06-09T07:17:38Z</time>
      </trkpt>
      <trkpt lat="48.59367" lon="1.96778">
        <ele>144.2</ele>
        <time>2022-06-09T07:17:44Z</time>
      </trkpt>
      <trkpt lat="48.59373" lon="1.96767">
        <ele>144.3</ele>
        <time>2022-06-09T07:17:50Z</time>
      </trkpt>
      <trkpt lat="48.59379" lon="1.96754">
        <ele>144.4</ele>
        <time>2022-06-09T07:17:58Z</time>
      </trkpt>
      <trkpt lat="48.59384" lon="1.96742">
        <ele>144.6</ele>
        <time>2022-06-09T07:18:05Z</time>
      </trkpt>
      <trkpt lat="48.59391" lon="1.96732">
        <ele>144.8</ele>
        <time>2022-06-09T07:18:11Z</time>
      </trkpt>
      <trkpt lat="48.59397" lon="1.96721">
        <ele>144.2</ele>
        <time>2022-06-09T07:18:18Z</time>
      </trkpt>
      <trkpt lat="48.59401" lon="1.96709">
        <ele>143.7</ele>
        <time>2022-06-09T07:18:25Z</time>
      </trkpt>
      <trkpt lat="48.59407" lon="1.96697">
        <ele>143.4</ele>
        <time>2022-06-09T07:18:36Z</time>
      </trkpt>
      <trkpt lat="48.59414" lon="1.96707">
        <ele>144.3</ele>
        <time>2022-06-09T07:20:43Z</time>
      </trkpt>
      <trkpt lat="48.59415" lon="1.96721">
        <ele>144.9</ele>
        <time>2022-06-09T07:20:53Z</time>
      </trkpt>
      <trkpt lat="48.59414" lon="1.96735">
        <ele>145.8</ele>
        <time>2022-06-09T07:21:01Z</time>
      </trkpt>
      <trkpt lat="48.59416" lon="1.96749">
        <ele>146.9</ele>
        <time>2022-06-09T07:21:09Z</time>
      </trkpt>
      <trkpt lat="48.59422" lon="1.96762">
        <ele>147.9</ele>
        <time>2022-06-09T07:21:17Z</time>
      </trkpt>
      <trkpt lat="48.59428" lon="1.96773">
        <ele>148.7</ele>
        <time>2022-06-09T07:21:24Z</time>
      </trkpt>
      <trkpt lat="48.59433" lon="1.96785">
        <ele>149.7</ele>
        <time>2022-06-09T07:21:32Z</time>
      </trkpt>
      <trkpt lat="48.59437" lon="1.96799">
        <ele>150.7</ele>
        <time>2022-06-09T07:21:40Z</time>
      </trkpt>
      <trkpt lat="48.59442" lon="1.96812">
        <ele>151.5</ele>
        <time>2022-06-09T07:21:48Z</time>
      </trkpt>
      <trkpt lat="48.59445" lon="1.96826">
        <ele>152.4</ele>
        <time>2022-06-09T07:21:57Z</time>
      </trkpt>
      <trkpt lat="48.59444" lon="1.96841">
        <ele>153</ele>
        <time>2022-06-09T07:22:05Z</time>
      </trkpt>
      <trkpt lat="48.59437" lon="1.96852">
        <ele>153.6</ele>
        <time>2022-06-09T07:22:14Z</time>
      </trkpt>
      <trkpt lat="48.59427" lon="1.96854">
        <ele>154.5</ele>
        <time>2022-06-09T07:22:22Z</time>
      </trkpt>
      <trkpt lat="48.59418" lon="1.96859">
        <ele>155.7</ele>
        <time>2022-06-09T07:22:30Z</time>
      </trkpt>
      <trkpt lat="48.59413" lon="1.9687">
        <ele>155.8</ele>
        <time>2022-06-09T07:22:37Z</time>
      </trkpt>
      <trkpt lat="48.59407" lon="1.96882">
        <ele>155.6</ele>
        <time>2022-06-09T07:22:46Z</time>
      </trkpt>
      <trkpt lat="48.59404" lon="1.96895">
        <ele>155.5</ele>
        <time>2022-06-09T07:22:52Z</time>
      </trkpt>
      <trkpt lat="48.59405" lon="1.96909">
        <ele>155.6</ele>
        <time>2022-06-09T07:22:58Z</time>
      </trkpt>
      <trkpt lat="48.59407" lon="1.96923">
        <ele>155.8</ele>
        <time>2022-06-09T07:23:05Z</time>
      </trkpt>
      <trkpt lat="48.5941" lon="1.96937">
        <ele>156.3</ele>
        <time>2022-06-09T07:23:12Z</time>
      </trkpt>
      <trkpt lat="48.59413" lon="1.9695">
        <ele>156.7</ele>
        <time>2022-06-09T07:23:18Z</time>
      </trkpt>
      <trkpt lat="48.5942" lon="1.96961">
        <ele>156.8</ele>
        <time>2022-06-09T07:23:24Z</time>
      </trkpt>
      <trkpt lat="48.59427" lon="1.9697">
        <ele>156.2</ele>
        <time>2022-06-09T07:23:30Z</time>
      </trkpt>
      <trkpt lat="48.59425" lon="1.96983">
        <ele>156.4</ele>
        <time>2022-06-09T07:23:39Z</time>
      </trkpt>
      <trkpt lat="48.59424" lon="1.96999">
        <ele>156.5</ele>
        <time>2022-06-09T07:23:46Z</time>
      </trkpt>
      <trkpt lat="48.59422" lon="1.97013">
        <ele>156.7</ele>
        <time>2022-06-09T07:23:53Z</time>
      </trkpt>
      <trkpt lat="48.59421" lon="1.97028">
        <ele>156.8</ele>
        <time>2022-06-09T07:24:01Z</time>
      </trkpt>
      <trkpt lat="48.59424" lon="1.97042">
        <ele>157.2</ele>
        <time>2022-06-09T07:24:08Z</time>
      </trkpt>
      <trkpt lat="48.59428" lon="1.97055">
        <ele>157.6</ele>
        <time>2022-06-09T07:24:15Z</time>
      </trkpt>
      <trkpt lat="48.59429" lon="1.97068">
        <ele>157.8</ele>
        <time>2022-06-09T07:24:21Z</time>
      </trkpt>
      <trkpt lat="48.59433" lon="1.97081">
        <ele>158</ele>
        <time>2022-06-09T07:24:28Z</time>
      </trkpt>
      <trkpt lat="48.59435" lon="1.97095">
        <ele>158</ele>
        <time>2022-06-09T07:24:35Z</time>
      </trkpt>
      <trkpt lat="48.59435" lon="1.9711">
        <ele>158</ele>
        <time>2022-06-09T07:24:42Z</time>
      </trkpt>
      <trkpt lat="48.59433" lon="1.97126">
        <ele>158.3</ele>
        <time>2022-06-09T07:24:49Z</time>
      </trkpt>
      <trkpt lat="48.59433" lon="1.97141">
        <ele>158.5</ele>
        <time>2022-06-09T07:24:55Z</time>
      </trkpt>
      <trkpt lat="48.59436" lon="1.97155">
        <ele>158.1</ele>
        <time>2022-06-09T07:25:01Z</time>
      </trkpt>
      <trkpt lat="48.59441" lon="1.97167">
        <ele>157.9</ele>
        <time>2022-06-09T07:25:07Z</time>
      </trkpt>
      <trkpt lat="48.59442" lon="1.97181">
        <ele>157.9</ele>
        <time>2022-06-09T07:25:14Z</time>
      </trkpt>
      <trkpt lat="48.5944" lon="1.97194">
        <ele>157.7</ele>
        <time>2022-06-09T07:25:21Z</time>
      </trkpt>
      <trkpt lat="48.59435" lon="1.97206">
        <ele>156.6</ele>
        <time>2022-06-09T07:25:28Z</time>
      </trkpt>
      <trkpt lat="48.59429" lon="1.97218">
        <ele>155.6</ele>
        <time>2022-06-09T07:25:35Z</time>
      </trkpt>
      <trkpt lat="48.59425" lon="1.97232">
        <ele>154.4</ele>
        <time>2022-06-09T07:25:42Z</time>
      </trkpt>
      <trkpt lat="48.59426" lon="1.97246">
        <ele>153.1</ele>
        <time>2022-06-09T07:25:49Z</time>
      </trkpt>
      <trkpt lat="48.59433" lon="1.97254">
        <ele>152.6</ele>
        <time>2022-06-09T07:25:55Z</time>
      </trkpt>
      <trkpt lat="48.5944" lon="1.97267">
        <ele>151.3</ele>
        <time>2022-06-09T07:26:04Z</time>
      </trkpt>
      <trkpt lat="48.59445" lon="1.97279">
        <ele>149.8</ele>
        <time>2022-06-09T07:26:12Z</time>
      </trkpt>
      <trkpt lat="48.59452" lon="1.97286">
        <ele>148.7</ele>
        <time>2022-06-09T07:26:23Z</time>
      </trkpt>
      <trkpt lat="48.59458" lon="1.97299">
        <ele>147</ele>
        <time>2022-06-09T07:26:35Z</time>
      </trkpt>
      <trkpt lat="48.59459" lon="1.97313">
        <ele>145</ele>
        <time>2022-06-09T07:26:44Z</time>
      </trkpt>
      <trkpt lat="48.5946" lon="1.97327">
        <ele>143</ele>
        <time>2022-06-09T07:26:55Z</time>
      </trkpt>
      <trkpt lat="48.59462" lon="1.97341">
        <ele>141.3</ele>
        <time>2022-06-09T07:27:05Z</time>
      </trkpt>
      <trkpt lat="48.59466" lon="1.97355">
        <ele>140.1</ele>
        <time>2022-06-09T07:27:13Z</time>
      </trkpt>
      <trkpt lat="48.59466" lon="1.97369">
        <ele>138.9</ele>
        <time>2022-06-09T07:27:22Z</time>
      </trkpt>
      <trkpt lat="48.59467" lon="1.97384">
        <ele>138</ele>
        <time>2022-06-09T07:27:30Z</time>
      </trkpt>
      <trkpt lat="48.5947" lon="1.97398">
        <ele>137.8</ele>
        <time>2022-06-09T07:27:37Z</time>
      </trkpt>
      <trkpt lat="48.59469" lon="1.97411">
        <ele>137.8</ele>
        <time>2022-06-09T07:27:46Z</time>
      </trkpt>
      <trkpt lat="48.59464" lon="1.97423">
        <ele>137.5</ele>
        <time>2022-06-09T07:27:54Z</time>
      </trkpt>
      <trkpt lat="48.59466" lon="1.97437">
        <ele>137.7</ele>
        <time>2022-06-09T07:28:09Z</time>
      </trkpt>
      <trkpt lat="48.59466" lon="1.97451">
        <ele>138.3</ele>
        <time>2022-06-09T07:29:39Z</time>
      </trkpt>
      <trkpt lat="48.59463" lon="1.97465">
        <ele>139.1</ele>
        <time>2022-06-09T07:29:50Z</time>
      </trkpt>
      <trkpt lat="48.59465" lon="1.97479">
        <ele>140.1</ele>
        <time>2022-06-09T07:29:59Z</time>
      </trkpt>
      <trkpt lat="48.59466" lon="1.97494">
        <ele>140.7</ele>
        <time>2022-06-09T07:30:09Z</time>
      </trkpt>
      <trkpt lat="48.59463" lon="1.97507">
        <ele>141.1</ele>
        <time>2022-06-09T07:30:17Z</time>
      </trkpt>
      <trkpt lat="48.59457" lon="1.97518">
        <ele>141.4</ele>
        <time>2022-06-09T07:30:25Z</time>
      </trkpt>
      <trkpt lat="48.59451" lon="1.97529">
        <ele>141.9</ele>
        <time>2022-06-09T07:30:34Z</time>
      </trkpt>
      <trkpt lat="48.59447" lon="1.97542">
        <ele>142.9</ele>
        <time>2022-06-09T07:30:43Z</time>
      </trkpt>
      <trkpt lat="48.59444" lon="1.97557">
        <ele>144</ele>
        <time>2022-06-09T07:30:51Z</time>
      </trkpt>
      <trkpt lat="48.5944" lon="1.9757">
        <ele>144.7</ele>
        <time>2022-06-09T07:30:59Z</time>
      </trkpt>
      <trkpt lat="48.59435" lon="1.97584">
        <ele>145.7</ele>
        <time>2022-06-09T07:31:07Z</time>
      </trkpt>
      <trkpt lat="48.5943" lon="1.97597">
        <ele>146.5</ele>
        <time>2022-06-09T07:31:15Z</time>
      </trkpt>
      <trkpt lat="48.59428" lon="1.97611">
        <ele>147.2</ele>
        <time>2022-06-09T07:31:23Z</time>
      </trkpt>
      <trkpt lat="48.59424" lon="1.97625">
        <ele>148.3</ele>
        <time>2022-06-09T07:31:32Z</time>
      </trkpt>
      <trkpt lat="48.59424" lon="1.97639">
        <ele>149.2</ele>
        <time>2022-06-09T07:31:41Z</time>
      </trkpt>
      <trkpt lat="48.59425" lon="1.97653">
        <ele>150.1</ele>
        <time>2022-06-09T07:31:48Z</time>
      </trkpt>
      <trkpt lat="48.59424" lon="1.97668">
        <ele>151.3</ele>
        <time>2022-06-09T07:31:56Z</time>
      </trkpt>
      <trkpt lat="48.59424" lon="1.97682">
        <ele>152.5</ele>
        <time>2022-06-09T07:32:03Z</time>
      </trkpt>
      <trkpt lat="48.59426" lon="1.97698">
        <ele>153.6</ele>
        <time>2022-06-09T07:32:10Z</time>
      </trkpt>
      <trkpt lat="48.59428" lon="1.97711">
        <ele>154.4</ele>
        <time>2022-06-09T07:32:18Z</time>
      </trkpt>
      <trkpt lat="48.59432" lon="1.97725">
        <ele>155.1</ele>
        <time>2022-06-09T07:32:26Z</time>
      </trkpt>
      <trkpt lat="48.59434" lon="1.97738">
        <ele>155.7</ele>
        <time>2022-06-09T07:32:34Z</time>
      </trkpt>
      <trkpt lat="48.59441" lon="1.97749">
        <ele>156.1</ele>
        <time>2022-06-09T07:32:42Z</time>
      </trkpt>
      <trkpt lat="48.59447" lon="1.97758">
        <ele>156.2</ele>
        <time>2022-06-09T07:32:48Z</time>
      </trkpt>
      <trkpt lat="48.59448" lon="1.97774">
        <ele>156.9</ele>
        <time>2022-06-09T07:32:56Z</time>
      </trkpt>
      <trkpt lat="48.59449" lon="1.9779">
        <ele>157.4</ele>
        <time>2022-06-09T07:33:04Z</time>
      </trkpt>
      <trkpt lat="48.59455" lon="1.97802">
        <ele>157.9</ele>
        <time>2022-06-09T07:33:11Z</time>
      </trkpt>
      <trkpt lat="48.59459" lon="1.97816">
        <ele>158.2</ele>
        <time>2022-06-09T07:33:18Z</time>
      </trkpt>
      <trkpt lat="48.59461" lon="1.9783">
        <ele>158.3</ele>
        <time>2022-06-09T07:33:24Z</time>
      </trkpt>
      <trkpt lat="48.59466" lon="1.97844">
        <ele>158.2</ele>
        <time>2022-06-09T07:33:30Z</time>
      </trkpt>
      <trkpt lat="48.59472" lon="1.97856">
        <ele>158</ele>
        <time>2022-06-09T07:33:36Z</time>
      </trkpt>
      <trkpt lat="48.59479" lon="1.97865">
        <ele>158.1</ele>
        <time>2022-06-09T07:33:42Z</time>
      </trkpt>
      <trkpt lat="48.59484" lon="1.97877">
        <ele>158.3</ele>
        <time>2022-06-09T07:33:49Z</time>
      </trkpt>
      <trkpt lat="48.59489" lon="1.9789">
        <ele>158.4</ele>
        <time>2022-06-09T07:33:56Z</time>
      </trkpt>
      <trkpt lat="48.59493" lon="1.97903">
        <ele>158.3</ele>
        <time>2022-06-09T07:34:03Z</time>
      </trkpt>
      <trkpt lat="48.59494" lon="1.97919">
        <ele>158.2</ele>
        <time>2022-06-09T07:34:10Z</time>
      </trkpt>
      <trkpt lat="48.59496" lon="1.97932">
        <ele>158.1</ele>
        <time>2022-06-09T07:34:17Z</time>
      </trkpt>
      <trkpt lat="48.59499" lon="1.97946">
        <ele>158.1</ele>
        <time>2022-06-09T07:34:25Z</time>
      </trkpt>
      <trkpt lat="48.59501" lon="1.97961">
        <ele>158.6</ele>
        <time>2022-06-09T07:34:33Z</time>
      </trkpt>
      <trkpt lat="48.59504" lon="1.97975">
        <ele>158.8</ele>
        <time>2022-06-09T07:34:41Z</time>
      </trkpt>
      <trkpt lat="48.5951" lon="1.97986">
        <ele>158.3</ele>
        <time>2022-06-09T07:34:48Z</time>
      </trkpt>
      <trkpt lat="48.59518" lon="1.97996">
        <ele>158.1</ele>
        <time>2022-06-09T07:34:53Z</time>
      </trkpt>
      <trkpt lat="48.59525" lon="1.98008">
        <ele>157.7</ele>
        <time>2022-06-09T07:34:59Z</time>
      </trkpt>
      <trkpt lat="48.59532" lon="1.98016">
        <ele>157.3</ele>
        <time>2022-06-09T07:35:04Z</time>
      </trkpt>
      <trkpt lat="48.5954" lon="1.98026">
        <ele>157</ele>
        <time>2022-06-09T07:35:10Z</time>
      </trkpt>
      <trkpt lat="48.59549" lon="1.98034">
        <ele>156.8</ele>
        <time>2022-06-09T07:35:16Z</time>
      </trkpt>
      <trkpt lat="48.59557" lon="1.98042">
        <ele>156.3</ele>
        <time>2022-06-09T07:35:22Z</time>
      </trkpt>
      <trkpt lat="48.59566" lon="1.98047">
        <ele>155.4</ele>
        <time>2022-06-09T07:35:29Z</time>
      </trkpt>
      <trkpt lat="48.59576" lon="1.98049">
        <ele>154.6</ele>
        <time>2022-06-09T07:35:36Z</time>
      </trkpt>
      <trkpt lat="48.59585" lon="1.98055">
        <ele>153.8</ele>
        <time>2022-06-09T07:35:43Z</time>
      </trkpt>
      <trkpt lat="48.59593" lon="1.98064">
        <ele>152.8</ele>
        <time>2022-06-09T07:35:51Z</time>
      </trkpt>
      <trkpt lat="48.596" lon="1.98073">
        <ele>152</ele>
        <time>2022-06-09T07:35:58Z</time>
      </trkpt>
      <trkpt lat="48.59608" lon="1.98082">
        <ele>151.3</ele>
        <time>2022-06-09T07:36:05Z</time>
      </trkpt>
      <trkpt lat="48.59612" lon="1.98095">
        <ele>151.3</ele>
        <time>2022-06-09T07:36:12Z</time>
      </trkpt>
      <trkpt lat="48.59621" lon="1.98104">
        <ele>151</ele>
        <time>2022-06-09T07:36:18Z</time>
      </trkpt>
      <trkpt lat="48.5963" lon="1.98111">
        <ele>150.6</ele>
        <time>2022-06-09T07:36:23Z</time>
      </trkpt>
      <trkpt lat="48.59638" lon="1.98116">
        <ele>150.2</ele>
        <time>2022-06-09T07:36:28Z</time>
      </trkpt>
      <trkpt lat="48.59646" lon="1.98126">
        <ele>150.3</ele>
        <time>2022-06-09T07:36:36Z</time>
      </trkpt>
      <trkpt lat="48.59654" lon="1.98134">
        <ele>150.3</ele>
        <time>2022-06-09T07:36:44Z</time>
      </trkpt>
      <trkpt lat="48.59662" lon="1.98142">
        <ele>150.2</ele>
        <time>2022-06-09T07:36:49Z</time>
      </trkpt>
      <trkpt lat="48.59667" lon="1.98155">
        <ele>150</ele>
        <time>2022-06-09T07:36:57Z</time>
      </trkpt>
      <trkpt lat="48.59675" lon="1.98163">
        <ele>149.4</ele>
        <time>2022-06-09T07:37:03Z</time>
      </trkpt>
      <trkpt lat="48.59684" lon="1.98171">
        <ele>148.6</ele>
        <time>2022-06-09T07:37:10Z</time>
      </trkpt>
      <trkpt lat="48.59692" lon="1.98181">
        <ele>147.6</ele>
        <time>2022-06-09T07:37:17Z</time>
      </trkpt>
      <trkpt lat="48.59699" lon="1.98189">
        <ele>146.9</ele>
        <time>2022-06-09T07:37:24Z</time>
      </trkpt>
      <trkpt lat="48.59708" lon="1.98198">
        <ele>145.8</ele>
        <time>2022-06-09T07:37:31Z</time>
      </trkpt>
      <trkpt lat="48.59718" lon="1.98201">
        <ele>144.8</ele>
        <time>2022-06-09T07:37:38Z</time>
      </trkpt>
      <trkpt lat="48.59727" lon="1.982">
        <ele>144.3</ele>
        <time>2022-06-09T07:37:44Z</time>
      </trkpt>
      <trkpt lat="48.59735" lon="1.98191">
        <ele>144.3</ele>
        <time>2022-06-09T07:37:49Z</time>
      </trkpt>
      <trkpt lat="48.59743" lon="1.98181">
        <ele>144.2</ele>
        <time>2022-06-09T07:37:55Z</time>
      </trkpt>
      <trkpt lat="48.5975" lon="1.98174">
        <ele>143.7</ele>
        <time>2022-06-09T07:38:01Z</time>
      </trkpt>
      <trkpt lat="48.59759" lon="1.98166">
        <ele>143.4</ele>
        <time>2022-06-09T07:38:08Z</time>
      </trkpt>
      <trkpt lat="48.59766" lon="1.98157">
        <ele>143</ele>
        <time>2022-06-09T07:38:15Z</time>
      </trkpt>
      <trkpt lat="48.59773" lon="1.98146">
        <ele>142.4</ele>
        <time>2022-06-09T07:38:22Z</time>
      </trkpt>
      <trkpt lat="48.59781" lon="1.98136">
        <ele>141.9</ele>
        <time>2022-06-09T07:38:29Z</time>
      </trkpt>
      <trkpt lat="48.59789" lon="1.98129">
        <ele>141.7</ele>
        <time>2022-06-09T07:38:35Z</time>
      </trkpt>
      <trkpt lat="48.59796" lon="1.9812">
        <ele>141.8</ele>
        <time>2022-06-09T07:38:41Z</time>
      </trkpt>
      <trkpt lat="48.59804" lon="1.9811">
        <ele>142.1</ele>
        <time>2022-06-09T07:38:48Z</time>
      </trkpt>
      <trkpt lat="48.59811" lon="1.98099">
        <ele>142.3</ele>
        <time>2022-06-09T07:38:55Z</time>
      </trkpt>
      <trkpt lat="48.59818" lon="1.98091">
        <ele>142.6</ele>
        <time>2022-06-09T07:39:02Z</time>
      </trkpt>
      <trkpt lat="48.59824" lon="1.98079">
        <ele>143.1</ele>
        <time>2022-06-09T07:39:09Z</time>
      </trkpt>
      <trkpt lat="48.5983" lon="1.9807">
        <ele>143.4</ele>
        <time>2022-06-09T07:39:15Z</time>
      </trkpt>
      <trkpt lat="48.59837" lon="1.9806">
        <ele>143.9</ele>
        <time>2022-06-09T07:39:21Z</time>
      </trkpt>
      <trkpt lat="48.59844" lon="1.9805">
        <ele>144.1</ele>
        <time>2022-06-09T07:39:28Z</time>
      </trkpt>
      <trkpt lat="48.5985" lon="1.98039">
        <ele>144.4</ele>
        <time>2022-06-09T07:39:35Z</time>
      </trkpt>
      <trkpt lat="48.59855" lon="1.98025">
        <ele>144.7</ele>
        <time>2022-06-09T07:39:42Z</time>
      </trkpt>
      <trkpt lat="48.59859" lon="1.98013">
        <ele>144.4</ele>
        <time>2022-06-09T07:39:54Z</time>
      </trkpt>
      <trkpt lat="48.59865" lon="1.98002">
        <ele>144.1</ele>
        <time>2022-06-09T07:40:57Z</time>
      </trkpt>
      <trkpt lat="48.59869" lon="1.9799">
        <ele>143.2</ele>
        <time>2022-06-09T07:41:04Z</time>
      </trkpt>
      <trkpt lat="48.59876" lon="1.97978">
        <ele>142</ele>
        <time>2022-06-09T07:41:12Z</time>
      </trkpt>
      <trkpt lat="48.59882" lon="1.97968">
        <ele>140.7</ele>
        <time>2022-06-09T07:41:20Z</time>
      </trkpt>
      <trkpt lat="48.59889" lon="1.97957">
        <ele>139.3</ele>
        <time>2022-06-09T07:41:27Z</time>
      </trkpt>
      <trkpt lat="48.59894" lon="1.97944">
        <ele>137.5</ele>
        <time>2022-06-09T07:41:35Z</time>
      </trkpt>
      <trkpt lat="48.59901" lon="1.97934">
        <ele>135.8</ele>
        <time>2022-06-09T07:41:42Z</time>
      </trkpt>
      <trkpt lat="48.59907" lon="1.97923">
        <ele>134.1</ele>
        <time>2022-06-09T07:41:50Z</time>
      </trkpt>
      <trkpt lat="48.59912" lon="1.97911">
        <ele>132.4</ele>
        <time>2022-06-09T07:41:57Z</time>
      </trkpt>
      <trkpt lat="48.59917" lon="1.97898">
        <ele>130.3</ele>
        <time>2022-06-09T07:42:05Z</time>
      </trkpt>
      <trkpt lat="48.59923" lon="1.97888">
        <ele>128.2</ele>
        <time>2022-06-09T07:42:14Z</time>
      </trkpt>
      <trkpt lat="48.59926" lon="1.97873">
        <ele>127</ele>
        <time>2022-06-09T07:42:22Z</time>
      </trkpt>
      <trkpt lat="48.59928" lon="1.97859">
        <ele>126.1</ele>
        <time>2022-06-09T07:42:32Z</time>
      </trkpt>
      <trkpt lat="48.59933" lon="1.97846">
        <ele>125.3</ele>
        <time>2022-06-09T07:42:41Z</time>
      </trkpt>
      <trkpt lat="48.59939" lon="1.97833">
        <ele>124.4</ele>
        <time>2022-06-09T07:42:48Z</time>
      </trkpt>
      <trkpt lat="48.59945" lon="1.97821">
        <ele>123.5</ele>
        <time>2022-06-09T07:42:54Z</time>
      </trkpt>
      <trkpt lat="48.59951" lon="1.97808">
        <ele>122.4</ele>
        <time>2022-06-09T07:43:01Z</time>
      </trkpt>
      <trkpt lat="48.59956" lon="1.97797">
        <ele>121.6</ele>
        <time>2022-06-09T07:43:08Z</time>
      </trkpt>
      <trkpt lat="48.5996" lon="1.97782">
        <ele>121</ele>
        <time>2022-06-09T07:43:15Z</time>
      </trkpt>
      <trkpt lat="48.59966" lon="1.9777">
        <ele>120</ele>
        <time>2022-06-09T07:43:23Z</time>
      </trkpt>
      <trkpt lat="48.59973" lon="1.97761">
        <ele>118.7</ele>
        <time>2022-06-09T07:43:31Z</time>
      </trkpt>
      <trkpt lat="48.59982" lon="1.9777">
        <ele>118.2</ele>
        <time>2022-06-09T07:43:46Z</time>
      </trkpt>
      <trkpt lat="48.59989" lon="1.97778">
        <ele>117.6</ele>
        <time>2022-06-09T07:43:56Z</time>
      </trkpt>
      <trkpt lat="48.59998" lon="1.97785">
        <ele>116.6</ele>
        <time>2022-06-09T07:44:03Z</time>
      </trkpt>
      <trkpt lat="48.60007" lon="1.9779">
        <ele>116.1</ele>
        <time>2022-06-09T07:44:10Z</time>
      </trkpt>
      <trkpt lat="48.60014" lon="1.978">
        <ele>115.9</ele>
        <time>2022-06-09T07:44:18Z</time>
      </trkpt>
      <trkpt lat="48.6002" lon="1.9781">
        <ele>115.7</ele>
        <time>2022-06-09T07:44:26Z</time>
      </trkpt>
      <trkpt lat="48.60028" lon="1.9782">
        <ele>115.5</ele>
        <time>2022-06-09T07:44:32Z</time>
      </trkpt>
      <trkpt lat="48.60036" lon="1.97827">
        <ele>115.3</ele>
        <time>2022-06-09T07:44:39Z</time>
      </trkpt>
      <trkpt lat="48.60043" lon="1.97837">
        <ele>115.1</ele>
        <time>2022-06-09T07:44:46Z</time>
      </trkpt>
      <trkpt lat="48.60051" lon="1.97844">
        <ele>114.7</ele>
        <time>2022-06-09T07:44:53Z</time>
      </trkpt>
      <trkpt lat="48.60059" lon="1.97853">
        <ele>114.6</ele>
        <time>2022-06-09T07:44:59Z</time>
      </trkpt>
      <trkpt lat="48.60068" lon="1.9786">
        <ele>114.1</ele>
        <time>2022-06-09T07:45:05Z</time>
      </trkpt>
      <trkpt lat="48.60076" lon="1.97868">
        <ele>113.6</ele>
        <time>2022-06-09T07:45:12Z</time>
      </trkpt>
      <trkpt lat="48.60084" lon="1.97877">
        <ele>113</ele>
        <time>2022-06-09T07:45:19Z</time>
      </trkpt>
      <trkpt lat="48.60091" lon="1.97887">
        <ele>112.7</ele>
        <time>2022-06-09T07:45:25Z</time>
      </trkpt>
      <trkpt lat="48.60099" lon="1.97894">
        <ele>112.6</ele>
        <time>2022-06-09T07:45:31Z</time>
      </trkpt>
      <trkpt lat="48.60106" lon="1.97903">
        <ele>112.4</ele>
        <time>2022-06-09T07:45:38Z</time>
      </trkpt>
      <trkpt lat="48.60113" lon="1.97911">
        <ele>112</ele>
        <time>2022-06-09T07:45:44Z</time>
      </trkpt>
      <trkpt lat="48.60121" lon="1.97919">
        <ele>111.7</ele>
        <time>2022-06-09T07:45:50Z</time>
      </trkpt>
      <trkpt lat="48.60129" lon="1.97927">
        <ele>111.6</ele>
        <time>2022-06-09T07:45:56Z</time>
      </trkpt>
      <trkpt lat="48.60137" lon="1.97934">
        <ele>111.2</ele>
        <time>2022-06-09T07:46:02Z</time>
      </trkpt>
      <trkpt lat="48.60145" lon="1.97941">
        <ele>111.1</ele>
        <time>2022-06-09T07:46:08Z</time>
      </trkpt>
      <trkpt lat="48.60153" lon="1.9795">
        <ele>111</ele>
        <time>2022-06-09T07:46:15Z</time>
      </trkpt>
      <trkpt lat="48.60162" lon="1.97959">
        <ele>110.7</ele>
        <time>2022-06-09T07:46:22Z</time>
      </trkpt>
      <trkpt lat="48.6017" lon="1.97966">
        <ele>110.3</ele>
        <time>2022-06-09T07:46:28Z</time>
      </trkpt>
      <trkpt lat="48.60176" lon="1.97977">
        <ele>110.3</ele>
        <time>2022-06-09T07:46:35Z</time>
      </trkpt>
      <trkpt lat="48.60183" lon="1.97986">
        <ele>110.3</ele>
        <time>2022-06-09T07:46:42Z</time>
      </trkpt>
      <trkpt lat="48.60191" lon="1.97996">
        <ele>110.1</ele>
        <time>2022-06-09T07:46:48Z</time>
      </trkpt>
      <trkpt lat="48.60199" lon="1.98004">
        <ele>109.8</ele>
        <time>2022-06-09T07:46:54Z</time>
      </trkpt>
      <trkpt lat="48.60207" lon="1.98014">
        <ele>109.5</ele>
        <time>2022-06-09T07:47:00Z</time>
      </trkpt>
      <trkpt lat="48.60215" lon="1.98024">
        <ele>109.1</ele>
        <time>2022-06-09T07:47:06Z</time>
      </trkpt>
      <trkpt lat="48.60224" lon="1.98031">
        <ele>109</ele>
        <time>2022-06-09T07:47:13Z</time>
      </trkpt>
      <trkpt lat="48.60233" lon="1.98038">
        <ele>108.9</ele>
        <time>2022-06-09T07:47:18Z</time>
      </trkpt>
      <trkpt lat="48.6024" lon="1.98049">
        <ele>108.5</ele>
        <time>2022-06-09T07:47:24Z</time>
      </trkpt>
      <trkpt lat="48.60247" lon="1.98059">
        <ele>108.1</ele>
        <time>2022-06-09T07:47:32Z</time>
      </trkpt>
      <trkpt lat="48.60255" lon="1.98068">
        <ele>107.9</ele>
        <time>2022-06-09T07:47:39Z</time>
      </trkpt>
      <trkpt lat="48.60263" lon="1.98077">
        <ele>107.6</ele>
        <time>2022-06-09T07:47:46Z</time>
      </trkpt>
      <trkpt lat="48.60268" lon="1.98089">
        <ele>107.7</ele>
        <time>2022-06-09T07:47:52Z</time>
      </trkpt>
      <trkpt lat="48.60276" lon="1.98099">
        <ele>108.2</ele>
        <time>2022-06-09T07:47:59Z</time>
      </trkpt>
      <trkpt lat="48.60285" lon="1.98105">
        <ele>108.3</ele>
        <time>2022-06-09T07:48:05Z</time>
      </trkpt>
      <trkpt lat="48.60294" lon="1.98113">
        <ele>108.6</ele>
        <time>2022-06-09T07:48:14Z</time>
      </trkpt>
      <trkpt lat="48.60302" lon="1.98117">
        <ele>108.6</ele>
        <time>2022-06-09T07:48:20Z</time>
      </trkpt>
      <trkpt lat="48.60311" lon="1.98124">
        <ele>108.4</ele>
        <time>2022-06-09T07:48:26Z</time>
      </trkpt>
      <trkpt lat="48.6032" lon="1.98133">
        <ele>108.1</ele>
        <time>2022-06-09T07:48:33Z</time>
      </trkpt>
      <trkpt lat="48.60327" lon="1.98141">
        <ele>107.7</ele>
        <time>2022-06-09T07:48:39Z</time>
      </trkpt>
      <trkpt lat="48.60335" lon="1.9815">
        <ele>107.2</ele>
        <time>2022-06-09T07:48:44Z</time>
      </trkpt>
      <trkpt lat="48.60344" lon="1.98158">
        <ele>106.4</ele>
        <time>2022-06-09T07:48:50Z</time>
      </trkpt>
      <trkpt lat="48.60352" lon="1.98166">
        <ele>105.4</ele>
        <time>2022-06-09T07:48:57Z</time>
      </trkpt>
      <trkpt lat="48.60358" lon="1.98176">
        <ele>104.4</ele>
        <time>2022-06-09T07:49:03Z</time>
      </trkpt>
      <trkpt lat="48.60365" lon="1.98187">
        <ele>103.8</ele>
        <time>2022-06-09T07:49:10Z</time>
      </trkpt>
      <trkpt lat="48.60372" lon="1.98198">
        <ele>103.2</ele>
        <time>2022-06-09T07:49:16Z</time>
      </trkpt>
      <trkpt lat="48.6038" lon="1.98204">
        <ele>102.6</ele>
        <time>2022-06-09T07:49:23Z</time>
      </trkpt>
      <trkpt lat="48.60388" lon="1.98212">
        <ele>102</ele>
        <time>2022-06-09T07:49:30Z</time>
      </trkpt>
      <trkpt lat="48.60398" lon="1.98218">
        <ele>102</ele>
        <time>2022-06-09T07:49:37Z</time>
      </trkpt>
      <trkpt lat="48.60406" lon="1.98229">
        <ele>102</ele>
        <time>2022-06-09T07:49:44Z</time>
      </trkpt>
      <trkpt lat="48.60413" lon="1.9824">
        <ele>102</ele>
        <time>2022-06-09T07:49:51Z</time>
      </trkpt>
      <trkpt lat="48.6042" lon="1.98248">
        <ele>102</ele>
        <time>2022-06-09T07:49:57Z</time>
      </trkpt>
      <trkpt lat="48.60428" lon="1.98258">
        <ele>101.7</ele>
        <time>2022-06-09T07:50:07Z</time>
      </trkpt>
      <trkpt lat="48.60436" lon="1.98266">
        <ele>101.4</ele>
        <time>2022-06-09T07:50:14Z</time>
      </trkpt>
      <trkpt lat="48.60444" lon="1.98272">
        <ele>101.2</ele>
        <time>2022-06-09T07:50:20Z</time>
      </trkpt>
      <trkpt lat="48.60453" lon="1.98279">
        <ele>101.3</ele>
        <time>2022-06-09T07:50:27Z</time>
      </trkpt>
      <trkpt lat="48.60461" lon="1.98288">
        <ele>101.4</ele>
        <time>2022-06-09T07:50:34Z</time>
      </trkpt>
      <trkpt lat="48.60469" lon="1.98297">
        <ele>101.3</ele>
        <time>2022-06-09T07:50:42Z</time>
      </trkpt>
      <trkpt lat="48.60478" lon="1.98304">
        <ele>101.2</ele>
        <time>2022-06-09T07:50:49Z</time>
      </trkpt>
      <trkpt lat="48.60486" lon="1.98312">
        <ele>101.4</ele>
        <time>2022-06-09T07:50:55Z</time>
      </trkpt>
      <trkpt lat="48.60494" lon="1.98319">
        <ele>101.4</ele>
        <time>2022-06-09T07:51:01Z</time>
      </trkpt>
      <trkpt lat="48.60502" lon="1.98328">
        <ele>101.2</ele>
        <time>2022-06-09T07:51:07Z</time>
      </trkpt>
      <trkpt lat="48.6051" lon="1.98335">
        <ele>101.4</ele>
        <time>2022-06-09T07:51:14Z</time>
      </trkpt>
      <trkpt lat="48.60519" lon="1.98342">
        <ele>101.7</ele>
        <time>2022-06-09T07:51:21Z</time>
      </trkpt>
      <trkpt lat="48.60525" lon="1.98353">
        <ele>101.9</ele>
        <time>2022-06-09T07:51:30Z</time>
      </trkpt>
      <trkpt lat="48.60535" lon="1.98357">
        <ele>102</ele>
        <time>2022-06-09T07:51:38Z</time>
      </trkpt>
      <trkpt lat="48.60545" lon="1.98355">
        <ele>102.1</ele>
        <time>2022-06-09T07:51:45Z</time>
      </trkpt>
      <trkpt lat="48.60554" lon="1.98352">
        <ele>102.3</ele>
        <time>2022-06-09T07:51:52Z</time>
      </trkpt>
      <trkpt lat="48.60564" lon="1.98349">
        <ele>102.6</ele>
        <time>2022-06-09T07:51:59Z</time>
      </trkpt>
      <trkpt lat="48.60573" lon="1.98348">
        <ele>102.8</ele>
        <time>2022-06-09T07:52:06Z</time>
      </trkpt>
      <trkpt lat="48.60583" lon="1.98346">
        <ele>103</ele>
        <time>2022-06-09T07:52:13Z</time>
      </trkpt>
      <trkpt lat="48.60592" lon="1.98342">
        <ele>102.7</ele>
        <time>2022-06-09T07:52:20Z</time>
      </trkpt>
      <trkpt lat="48.60601" lon="1.98338">
        <ele>102.4</ele>
        <time>2022-06-09T07:52:27Z</time>
      </trkpt>
      <trkpt lat="48.60609" lon="1.98334">
        <ele>102.1</ele>
        <time>2022-06-09T07:52:34Z</time>
      </trkpt>
      <trkpt lat="48.60619" lon="1.98332">
        <ele>102</ele>
        <time>2022-06-09T07:52:41Z</time>
      </trkpt>
      <trkpt lat="48.60628" lon="1.98328">
        <ele>102.1</ele>
        <time>2022-06-09T07:52:47Z</time>
      </trkpt>
      <trkpt lat="48.60637" lon="1.98322">
        <ele>102</ele>
        <time>2022-06-09T07:52:52Z</time>
      </trkpt>
      <trkpt lat="48.60646" lon="1.98318">
        <ele>101.9</ele>
        <time>2022-06-09T07:52:58Z</time>
      </trkpt>
      <trkpt lat="48.60656" lon="1.98317">
        <ele>101.8</ele>
        <time>2022-06-09T07:53:06Z</time>
      </trkpt>
      <trkpt lat="48.60665" lon="1.98312">
        <ele>101.8</ele>
        <time>2022-06-09T07:53:13Z</time>
      </trkpt>
      <trkpt lat="48.60674" lon="1.98306">
        <ele>102</ele>
        <time>2022-06-09T07:53:20Z</time>
      </trkpt>
      <trkpt lat="48.60683" lon="1.98303">
        <ele>102.1</ele>
        <time>2022-06-09T07:53:26Z</time>
      </trkpt>
      <trkpt lat="48.60692" lon="1.98297">
        <ele>102.3</ele>
        <time>2022-06-09T07:53:34Z</time>
      </trkpt>
      <trkpt lat="48.607" lon="1.98289">
        <ele>102.4</ele>
        <time>2022-06-09T07:53:41Z</time>
      </trkpt>
      <trkpt lat="48.60709" lon="1.98283">
        <ele>102.3</ele>
        <time>2022-06-09T07:53:48Z</time>
      </trkpt>
      <trkpt lat="48.60718" lon="1.98276">
        <ele>102.2</ele>
        <time>2022-06-09T07:53:55Z</time>
      </trkpt>
      <trkpt lat="48.60725" lon="1.98265">
        <ele>102.4</ele>
        <time>2022-06-09T07:54:01Z</time>
      </trkpt>
      <trkpt lat="48.60732" lon="1.98256">
        <ele>102.4</ele>
        <time>2022-06-09T07:54:08Z</time>
      </trkpt>
      <trkpt lat="48.60737" lon="1.98241">
        <ele>102.6</ele>
        <time>2022-06-09T07:54:15Z</time>
      </trkpt>
      <trkpt lat="48.60743" lon="1.98229">
        <ele>102.4</ele>
        <time>2022-06-09T07:54:21Z</time>
      </trkpt>
      <trkpt lat="48.60752" lon="1.98223">
        <ele>101.9</ele>
        <time>2022-06-09T07:54:28Z</time>
      </trkpt>
      <trkpt lat="48.60759" lon="1.98213">
        <ele>101.9</ele>
        <time>2022-06-09T07:54:34Z</time>
      </trkpt>
      <trkpt lat="48.60761" lon="1.98199">
        <ele>102.1</ele>
        <time>2022-06-09T07:54:40Z</time>
      </trkpt>
      <trkpt lat="48.60764" lon="1.98184">
        <ele>102.2</ele>
        <time>2022-06-09T07:54:47Z</time>
      </trkpt>
      <trkpt lat="48.60769" lon="1.98171">
        <ele>102.2</ele>
        <time>2022-06-09T07:54:53Z</time>
      </trkpt>
      <trkpt lat="48.60774" lon="1.98156">
        <ele>102.2</ele>
        <time>2022-06-09T07:55:00Z</time>
      </trkpt>
      <trkpt lat="48.6078" lon="1.98144">
        <ele>101.9</ele>
        <time>2022-06-09T07:55:07Z</time>
      </trkpt>
      <trkpt lat="48.6078" lon="1.9813">
        <ele>102.2</ele>
        <time>2022-06-09T07:55:15Z</time>
      </trkpt>
      <trkpt lat="48.60782" lon="1.98116">
        <ele>102.7</ele>
        <time>2022-06-09T07:55:22Z</time>
      </trkpt>
      <trkpt lat="48.60784" lon="1.98103">
        <ele>102.8</ele>
        <time>2022-06-09T07:55:28Z</time>
      </trkpt>
      <trkpt lat="48.60788" lon="1.98089">
        <ele>102.6</ele>
        <time>2022-06-09T07:55:34Z</time>
      </trkpt>
      <trkpt lat="48.60792" lon="1.98076">
        <ele>102.7</ele>
        <time>2022-06-09T07:55:40Z</time>
      </trkpt>
      <trkpt lat="48.60794" lon="1.98063">
        <ele>103.1</ele>
        <time>2022-06-09T07:55:47Z</time>
      </trkpt>
      <trkpt lat="48.60799" lon="1.98048">
        <ele>103.2</ele>
        <time>2022-06-09T07:55:54Z</time>
      </trkpt>
      <trkpt lat="48.60802" lon="1.98034">
        <ele>103.1</ele>
        <time>2022-06-09T07:56:00Z</time>
      </trkpt>
      <trkpt lat="48.60805" lon="1.98019">
        <ele>103</ele>
        <time>2022-06-09T07:56:08Z</time>
      </trkpt>
      <trkpt lat="48.60809" lon="1.98006">
        <ele>102.9</ele>
        <time>2022-06-09T07:56:15Z</time>
      </trkpt>
      <trkpt lat="48.60812" lon="1.97992">
        <ele>102.8</ele>
        <time>2022-06-09T07:56:21Z</time>
      </trkpt>
      <trkpt lat="48.60813" lon="1.97978">
        <ele>102.7</ele>
        <time>2022-06-09T07:56:26Z</time>
      </trkpt>
      <trkpt lat="48.60806" lon="1.97967">
        <ele>103</ele>
        <time>2022-06-09T07:56:33Z</time>
      </trkpt>
      <trkpt lat="48.60797" lon="1.97961">
        <ele>103.3</ele>
        <time>2022-06-09T07:56:40Z</time>
      </trkpt>
      <trkpt lat="48.60788" lon="1.97955">
        <ele>103.6</ele>
        <time>2022-06-09T07:56:47Z</time>
      </trkpt>
      <trkpt lat="48.60781" lon="1.97946">
        <ele>103.9</ele>
        <time>2022-06-09T07:56:56Z</time>
      </trkpt>
      <trkpt lat="48.60773" lon="1.97937">
        <ele>104.1</ele>
        <time>2022-06-09T07:57:02Z</time>
      </trkpt>
      <trkpt lat="48.60766" lon="1.97928">
        <ele>104.2</ele>
        <time>2022-06-09T07:57:12Z</time>
      </trkpt>
      <trkpt lat="48.60757" lon="1.9792">
        <ele>104.1</ele>
        <time>2022-06-09T07:57:19Z</time>
      </trkpt>
      <trkpt lat="48.60747" lon="1.97916">
        <ele>104.1</ele>
        <time>2022-06-09T07:57:25Z</time>
      </trkpt>
      <trkpt lat="48.6074" lon="1.97907">
        <ele>104.4</ele>
        <time>2022-06-09T07:57:32Z</time>
      </trkpt>
      <trkpt lat="48.60732" lon="1.97901">
        <ele>104.7</ele>
        <time>2022-06-09T07:57:39Z</time>
      </trkpt>
      <trkpt lat="48.60725" lon="1.97892">
        <ele>104.9</ele>
        <time>2022-06-09T07:57:46Z</time>
      </trkpt>
      <trkpt lat="48.60717" lon="1.97885">
        <ele>104.9</ele>
        <time>2022-06-09T07:57:53Z</time>
      </trkpt>
      <trkpt lat="48.60711" lon="1.97873">
        <ele>104.7</ele>
        <time>2022-06-09T07:58:01Z</time>
      </trkpt>
      <trkpt lat="48.60703" lon="1.97865">
        <ele>104.7</ele>
        <time>2022-06-09T07:58:09Z</time>
      </trkpt>
      <trkpt lat="48.60695" lon="1.97857">
        <ele>105</ele>
        <time>2022-06-09T07:58:16Z</time>
      </trkpt>
      <trkpt lat="48.60688" lon="1.97849">
        <ele>105.1</ele>
        <time>2022-06-09T07:58:22Z</time>
      </trkpt>
      <trkpt lat="48.6068" lon="1.97842">
        <ele>105.2</ele>
        <time>2022-06-09T07:58:28Z</time>
      </trkpt>
      <trkpt lat="48.60671" lon="1.97836">
        <ele>105.1</ele>
        <time>2022-06-09T07:58:34Z</time>
      </trkpt>
      <trkpt lat="48.60663" lon="1.97826">
        <ele>105.1</ele>
        <time>2022-06-09T07:58:41Z</time>
      </trkpt>
      <trkpt lat="48.60654" lon="1.97817">
        <ele>105.5</ele>
        <time>2022-06-09T07:58:48Z</time>
      </trkpt>
      <trkpt lat="48.60648" lon="1.97807">
        <ele>105.7</ele>
        <time>2022-06-09T07:58:55Z</time>
      </trkpt>
      <trkpt lat="48.6064" lon="1.97799">
        <ele>105.7</ele>
        <time>2022-06-09T07:59:02Z</time>
      </trkpt>
      <trkpt lat="48.60631" lon="1.97792">
        <ele>105.6</ele>
        <time>2022-06-09T07:59:08Z</time>
      </trkpt>
      <trkpt lat="48.60624" lon="1.97783">
        <ele>105.6</ele>
        <time>2022-06-09T07:59:13Z</time>
      </trkpt>
      <trkpt lat="48.60615" lon="1.97775">
        <ele>105.8</ele>
        <time>2022-06-09T07:59:20Z</time>
      </trkpt>
      <trkpt lat="48.60607" lon="1.97767">
        <ele>106.3</ele>
        <time>2022-06-09T07:59:28Z</time>
      </trkpt>
      <trkpt lat="48.60598" lon="1.97758">
        <ele>106.6</ele>
        <time>2022-06-09T07:59:35Z</time>
      </trkpt>
      <trkpt lat="48.60591" lon="1.97749">
        <ele>106.7</ele>
        <time>2022-06-09T07:59:41Z</time>
      </trkpt>
      <trkpt lat="48.60583" lon="1.97741">
        <ele>107</ele>
        <time>2022-06-09T07:59:47Z</time>
      </trkpt>
      <trkpt lat="48.60574" lon="1.97734">
        <ele>107.6</ele>
        <time>2022-06-09T07:59:54Z</time>
      </trkpt>
      <trkpt lat="48.60566" lon="1.97726">
        <ele>108.2</ele>
        <time>2022-06-09T08:00:02Z</time>
      </trkpt>
      <trkpt lat="48.60558" lon="1.97721">
        <ele>108.8</ele>
        <time>2022-06-09T08:00:09Z</time>
      </trkpt>
      <trkpt lat="48.60549" lon="1.97715">
        <ele>109.5</ele>
        <time>2022-06-09T08:00:16Z</time>
      </trkpt>
      <trkpt lat="48.60541" lon="1.97708">
        <ele>110</ele>
        <time>2022-06-09T08:00:23Z</time>
      </trkpt>
      <trkpt lat="48.60533" lon="1.977">
        <ele>110.7</ele>
        <time>2022-06-09T08:00:30Z</time>
      </trkpt>
      <trkpt lat="48.60524" lon="1.97692">
        <ele>111.1</ele>
        <time>2022-06-09T08:00:37Z</time>
      </trkpt>
      <trkpt lat="48.60515" lon="1.97685">
        <ele>111.3</ele>
        <time>2022-06-09T08:00:43Z</time>
      </trkpt>
      <trkpt lat="48.6051" lon="1.97674">
        <ele>111.4</ele>
        <time>2022-06-09T08:00:51Z</time>
      </trkpt>
      <trkpt lat="48.60502" lon="1.97663">
        <ele>111.8</ele>
        <time>2022-06-09T08:01:00Z</time>
      </trkpt>
      <trkpt lat="48.60495" lon="1.97655">
        <ele>112.2</ele>
        <time>2022-06-09T08:01:06Z</time>
      </trkpt>
      <trkpt lat="48.60486" lon="1.97647">
        <ele>112.5</ele>
        <time>2022-06-09T08:01:13Z</time>
      </trkpt>
      <trkpt lat="48.60479" lon="1.97637">
        <ele>112.8</ele>
        <time>2022-06-09T08:01:21Z</time>
      </trkpt>
      <trkpt lat="48.6047" lon="1.97631">
        <ele>113.1</ele>
        <time>2022-06-09T08:01:27Z</time>
      </trkpt>
      <trkpt lat="48.60463" lon="1.97621">
        <ele>113.7</ele>
        <time>2022-06-09T08:01:34Z</time>
      </trkpt>
      <trkpt lat="48.60455" lon="1.97612">
        <ele>114.2</ele>
        <time>2022-06-09T08:01:41Z</time>
      </trkpt>
      <trkpt lat="48.60447" lon="1.97602">
        <ele>114.5</ele>
        <time>2022-06-09T08:01:48Z</time>
      </trkpt>
      <trkpt lat="48.60439" lon="1.97593">
        <ele>114.7</ele>
        <time>2022-06-09T08:01:55Z</time>
      </trkpt>
      <trkpt lat="48.60431" lon="1.97587">
        <ele>115.1</ele>
        <time>2022-06-09T08:02:01Z</time>
      </trkpt>
      <trkpt lat="48.60422" lon="1.97578">
        <ele>115.5</ele>
        <time>2022-06-09T08:02:10Z</time>
      </trkpt>
      <trkpt lat="48.60413" lon="1.97569">
        <ele>115.8</ele>
        <time>2022-06-09T08:02:17Z</time>
      </trkpt>
      <trkpt lat="48.60406" lon="1.97561">
        <ele>116.3</ele>
        <time>2022-06-09T08:02:24Z</time>
      </trkpt>
      <trkpt lat="48.60398" lon="1.97553">
        <ele>117</ele>
        <time>2022-06-09T08:02:30Z</time>
      </trkpt>
      <trkpt lat="48.60389" lon="1.97546">
        <ele>117.6</ele>
        <time>2022-06-09T08:02:38Z</time>
      </trkpt>
      <trkpt lat="48.60382" lon="1.97537">
        <ele>118.1</ele>
        <time>2022-06-09T08:02:44Z</time>
      </trkpt>
      <trkpt lat="48.60373" lon="1.97531">
        <ele>118.8</ele>
        <time>2022-06-09T08:02:50Z</time>
      </trkpt>
      <trkpt lat="48.60365" lon="1.97522">
        <ele>119.4</ele>
        <time>2022-06-09T08:02:57Z</time>
      </trkpt>
      <trkpt lat="48.60358" lon="1.97512">
        <ele>119.6</ele>
        <time>2022-06-09T08:03:04Z</time>
      </trkpt>
      <trkpt lat="48.6035" lon="1.97504">
        <ele>119.9</ele>
        <time>2022-06-09T08:03:10Z</time>
      </trkpt>
      <trkpt lat="48.60342" lon="1.97497">
        <ele>120.2</ele>
        <time>2022-06-09T08:03:16Z</time>
      </trkpt>
      <trkpt lat="48.60334" lon="1.97491">
        <ele>120.6</ele>
        <time>2022-06-09T08:03:23Z</time>
      </trkpt>
      <trkpt lat="48.60325" lon="1.97486">
        <ele>121.3</ele>
        <time>2022-06-09T08:03:30Z</time>
      </trkpt>
      <trkpt lat="48.60317" lon="1.97477">
        <ele>121.8</ele>
        <time>2022-06-09T08:03:37Z</time>
      </trkpt>
      <trkpt lat="48.60309" lon="1.97469">
        <ele>122.6</ele>
        <time>2022-06-09T08:03:44Z</time>
      </trkpt>
      <trkpt lat="48.60301" lon="1.97463">
        <ele>123.7</ele>
        <time>2022-06-09T08:03:50Z</time>
      </trkpt>
      <trkpt lat="48.60291" lon="1.97457">
        <ele>125</ele>
        <time>2022-06-09T08:03:59Z</time>
      </trkpt>
      <trkpt lat="48.60284" lon="1.97447">
        <ele>126.1</ele>
        <time>2022-06-09T08:04:09Z</time>
      </trkpt>
      <trkpt lat="48.60277" lon="1.97438">
        <ele>127.3</ele>
        <time>2022-06-09T08:04:17Z</time>
      </trkpt>
      <trkpt lat="48.60269" lon="1.9743">
        <ele>128.8</ele>
        <time>2022-06-09T08:04:26Z</time>
      </trkpt>
      <trkpt lat="48.60261" lon="1.97423">
        <ele>130.3</ele>
        <time>2022-06-09T08:04:36Z</time>
      </trkpt>
      <trkpt lat="48.60253" lon="1.97415">
        <ele>131.6</ele>
        <time>2022-06-09T08:04:46Z</time>
      </trkpt>
      <trkpt lat="48.60246" lon="1.97405">
        <ele>132.8</ele>
        <time>2022-06-09T08:04:55Z</time>
      </trkpt>
      <trkpt lat="48.60238" lon="1.97395">
        <ele>134.4</ele>
        <time>2022-06-09T08:05:04Z</time>
      </trkpt>
      <trkpt lat="48.6023" lon="1.97388">
        <ele>136.3</ele>
        <time>2022-06-09T08:05:11Z</time>
      </trkpt>
      <trkpt lat="48.60222" lon="1.97379">
        <ele>138.3</ele>
        <time>2022-06-09T08:05:19Z</time>
      </trkpt>
      <trkpt lat="48.60214" lon="1.97373">
        <ele>139.7</ele>
        <time>2022-06-09T08:05:25Z</time>
      </trkpt>
      <trkpt lat="48.60207" lon="1.97365">
        <ele>141.1</ele>
        <time>2022-06-09T08:05:32Z</time>
      </trkpt>
      <trkpt lat="48.60197" lon="1.9736">
        <ele>142.6</ele>
        <time>2022-06-09T08:05:38Z</time>
      </trkpt>
      <trkpt lat="48.6019" lon="1.97352">
        <ele>143.2</ele>
        <time>2022-06-09T08:05:47Z</time>
      </trkpt>
      <trkpt lat="48.60182" lon="1.97343">
        <ele>143.5</ele>
        <time>2022-06-09T08:05:57Z</time>
      </trkpt>
      <trkpt lat="48.60174" lon="1.97336">
        <ele>143.7</ele>
        <time>2022-06-09T08:06:06Z</time>
      </trkpt>
      <trkpt lat="48.60165" lon="1.97331">
        <ele>144</ele>
        <time>2022-06-09T08:07:51Z</time>
      </trkpt>
      <trkpt lat="48.60157" lon="1.97324">
        <ele>144.1</ele>
        <time>2022-06-09T08:09:15Z</time>
      </trkpt>
      <trkpt lat="48.60148" lon="1.97326">
        <ele>144.2</ele>
        <time>2022-06-09T08:09:22Z</time>
      </trkpt>
      <trkpt lat="48.6014" lon="1.97334">
        <ele>144</ele>
        <time>2022-06-09T08:09:29Z</time>
      </trkpt>
      <trkpt lat="48.60134" lon="1.97345">
        <ele>143.3</ele>
        <time>2022-06-09T08:09:36Z</time>
      </trkpt>
      <trkpt lat="48.60129" lon="1.97358">
        <ele>142.4</ele>
        <time>2022-06-09T08:09:45Z</time>
      </trkpt>
      <trkpt lat="48.60123" lon="1.97371">
        <ele>141</ele>
        <time>2022-06-09T08:09:52Z</time>
      </trkpt>
      <trkpt lat="48.60119" lon="1.97383">
        <ele>139.4</ele>
        <time>2022-06-09T08:10:01Z</time>
      </trkpt>
      <trkpt lat="48.60114" lon="1.97396">
        <ele>137.5</ele>
        <time>2022-06-09T08:10:08Z</time>
      </trkpt>
      <trkpt lat="48.60108" lon="1.97406">
        <ele>135.9</ele>
        <time>2022-06-09T08:10:16Z</time>
      </trkpt>
      <trkpt lat="48.60103" lon="1.97419">
        <ele>134.2</ele>
        <time>2022-06-09T08:10:25Z</time>
      </trkpt>
      <trkpt lat="48.60096" lon="1.97429">
        <ele>133</ele>
        <time>2022-06-09T08:10:33Z</time>
      </trkpt>
      <trkpt lat="48.60089" lon="1.9744">
        <ele>131.8</ele>
        <time>2022-06-09T08:10:41Z</time>
      </trkpt>
      <trkpt lat="48.60085" lon="1.97454">
        <ele>130.4</ele>
        <time>2022-06-09T08:10:48Z</time>
      </trkpt>
      <trkpt lat="48.60082" lon="1.97467">
        <ele>129.3</ele>
        <time>2022-06-09T08:10:56Z</time>
      </trkpt>
      <trkpt lat="48.60076" lon="1.9748">
        <ele>127.9</ele>
        <time>2022-06-09T08:11:02Z</time>
      </trkpt>
      <trkpt lat="48.60072" lon="1.97493">
        <ele>126.7</ele>
        <time>2022-06-09T08:11:08Z</time>
      </trkpt>
      <trkpt lat="48.60067" lon="1.97505">
        <ele>125.5</ele>
        <time>2022-06-09T08:11:17Z</time>
      </trkpt>
      <trkpt lat="48.6006" lon="1.97516">
        <ele>124.7</ele>
        <time>2022-06-09T08:11:25Z</time>
      </trkpt>
      <trkpt lat="48.60056" lon="1.97529">
        <ele>124</ele>
        <time>2022-06-09T08:11:32Z</time>
      </trkpt>
      <trkpt lat="48.60049" lon="1.97541">
        <ele>123.3</ele>
        <time>2022-06-09T08:11:38Z</time>
      </trkpt>
      <trkpt lat="48.60042" lon="1.97552">
        <ele>122.6</ele>
        <time>2022-06-09T08:11:44Z</time>
      </trkpt>
      <trkpt lat="48.60036" lon="1.97563">
        <ele>122.3</ele>
        <time>2022-06-09T08:11:50Z</time>
      </trkpt>
      <trkpt lat="48.60031" lon="1.97576">
        <ele>122.1</ele>
        <time>2022-06-09T08:11:57Z</time>
      </trkpt>
      <trkpt lat="48.60025" lon="1.97589">
        <ele>121.7</ele>
        <time>2022-06-09T08:12:05Z</time>
      </trkpt>
      <trkpt lat="48.60021" lon="1.97603">
        <ele>121.1</ele>
        <time>2022-06-09T08:12:12Z</time>
      </trkpt>
      <trkpt lat="48.60016" lon="1.97615">
        <ele>120.5</ele>
        <time>2022-06-09T08:12:19Z</time>
      </trkpt>
      <trkpt lat="48.60011" lon="1.97628">
        <ele>120.2</ele>
        <time>2022-06-09T08:12:26Z</time>
      </trkpt>
      <trkpt lat="48.60005" lon="1.97638">
        <ele>120</ele>
        <time>2022-06-09T08:12:31Z</time>
      </trkpt>
      <trkpt lat="48.59998" lon="1.97648">
        <ele>119.3</ele>
        <time>2022-06-09T08:12:36Z</time>
      </trkpt>
      <trkpt lat="48.59991" lon="1.97657">
        <ele>118.6</ele>
        <time>2022-06-09T08:12:42Z</time>
      </trkpt>
      <trkpt lat="48.59983" lon="1.97665">
        <ele>118.1</ele>
        <time>2022-06-09T08:12:48Z</time>
      </trkpt>
      <trkpt lat="48.59978" lon="1.97677">
        <ele>117.3</ele>
        <time>2022-06-09T08:12:55Z</time>
      </trkpt>
      <trkpt lat="48.59972" lon="1.97688">
        <ele>116.5</ele>
        <time>2022-06-09T08:13:03Z</time>
      </trkpt>
      <trkpt lat="48.59963" lon="1.97692">
        <ele>116.5</ele>
        <time>2022-06-09T08:13:11Z</time>
      </trkpt>
      <trkpt lat="48.59956" lon="1.97682">
        <ele>117</ele>
        <time>2022-06-09T08:13:23Z</time>
      </trkpt>
      <trkpt lat="48.59954" lon="1.97668">
        <ele>117.3</ele>
        <time>2022-06-09T08:13:32Z</time>
      </trkpt>
      <trkpt lat="48.59949" lon="1.97655">
        <ele>118</ele>
        <time>2022-06-09T08:13:42Z</time>
      </trkpt>
      <trkpt lat="48.59944" lon="1.97642">
        <ele>118.8</ele>
        <time>2022-06-09T08:13:51Z</time>
      </trkpt>
      <trkpt lat="48.5994" lon="1.97628">
        <ele>119.4</ele>
        <time>2022-06-09T08:14:00Z</time>
      </trkpt>
      <trkpt lat="48.59934" lon="1.97617">
        <ele>119.8</ele>
        <time>2022-06-09T08:14:08Z</time>
      </trkpt>
      <trkpt lat="48.59927" lon="1.97604">
        <ele>120.2</ele>
        <time>2022-06-09T08:14:16Z</time>
      </trkpt>
      <trkpt lat="48.59922" lon="1.97593">
        <ele>120.7</ele>
        <time>2022-06-09T08:14:23Z</time>
      </trkpt>
      <trkpt lat="48.59916" lon="1.9758">
        <ele>121.1</ele>
        <time>2022-06-09T08:14:30Z</time>
      </trkpt>
      <trkpt lat="48.59911" lon="1.97568">
        <ele>121.6</ele>
        <time>2022-06-09T08:14:38Z</time>
      </trkpt>
      <trkpt lat="48.59905" lon="1.97557">
        <ele>122</ele>
        <time>2022-06-09T08:14:45Z</time>
      </trkpt>
      <trkpt lat="48.59898" lon="1.97546">
        <ele>122</ele>
        <time>2022-06-09T08:14:52Z</time>
      </trkpt>
      <trkpt lat="48.59893" lon="1.97533">
        <ele>122</ele>
        <time>2022-06-09T08:15:00Z</time>
      </trkpt>
      <trkpt lat="48.59887" lon="1.97521">
        <ele>122.3</ele>
        <time>2022-06-09T08:15:08Z</time>
      </trkpt>
      <trkpt lat="48.5988" lon="1.97509">
        <ele>122.7</ele>
        <time>2022-06-09T08:15:14Z</time>
      </trkpt>
      <trkpt lat="48.59876" lon="1.97496">
        <ele>123.2</ele>
        <time>2022-06-09T08:15:21Z</time>
      </trkpt>
      <trkpt lat="48.59872" lon="1.97483">
        <ele>123.6</ele>
        <time>2022-06-09T08:15:28Z</time>
      </trkpt>
      <trkpt lat="48.59866" lon="1.97471">
        <ele>124</ele>
        <time>2022-06-09T08:15:36Z</time>
      </trkpt>
      <trkpt lat="48.5986" lon="1.9746">
        <ele>124.4</ele>
        <time>2022-06-09T08:15:42Z</time>
      </trkpt>
      <trkpt lat="48.59854" lon="1.97449">
        <ele>124.8</ele>
        <time>2022-06-09T08:15:49Z</time>
      </trkpt>
      <trkpt lat="48.59847" lon="1.97439">
        <ele>125.2</ele>
        <time>2022-06-09T08:15:57Z</time>
      </trkpt>
      <trkpt lat="48.59842" lon="1.97426">
        <ele>125.7</ele>
        <time>2022-06-09T08:16:04Z</time>
      </trkpt>
      <trkpt lat="48.59838" lon="1.97413">
        <ele>126.1</ele>
        <time>2022-06-09T08:16:12Z</time>
      </trkpt>
      <trkpt lat="48.59832" lon="1.97402">
        <ele>126.5</ele>
        <time>2022-06-09T08:16:17Z</time>
      </trkpt>
      <trkpt lat="48.59824" lon="1.97393">
        <ele>126.9</ele>
        <time>2022-06-09T08:16:24Z</time>
      </trkpt>
      <trkpt lat="48.59819" lon="1.97381">
        <ele>127.1</ele>
        <time>2022-06-09T08:16:31Z</time>
      </trkpt>
      <trkpt lat="48.59815" lon="1.97367">
        <ele>127.5</ele>
        <time>2022-06-09T08:16:40Z</time>
      </trkpt>
      <trkpt lat="48.59811" lon="1.97355">
        <ele>128</ele>
        <time>2022-06-09T08:16:45Z</time>
      </trkpt>
      <trkpt lat="48.59807" lon="1.97342">
        <ele>128.6</ele>
        <time>2022-06-09T08:16:51Z</time>
      </trkpt>
      <trkpt lat="48.598" lon="1.97332">
        <ele>129.1</ele>
        <time>2022-06-09T08:16:58Z</time>
      </trkpt>
      <trkpt lat="48.59794" lon="1.9732">
        <ele>129.5</ele>
        <time>2022-06-09T08:17:05Z</time>
      </trkpt>
      <trkpt lat="48.59787" lon="1.97309">
        <ele>129.9</ele>
        <time>2022-06-09T08:17:12Z</time>
      </trkpt>
      <trkpt lat="48.5978" lon="1.97298">
        <ele>130.3</ele>
        <time>2022-06-09T08:17:19Z</time>
      </trkpt>
      <trkpt lat="48.59774" lon="1.97285">
        <ele>130.8</ele>
        <time>2022-06-09T08:17:27Z</time>
      </trkpt>
      <trkpt lat="48.59772" lon="1.97272">
        <ele>131.2</ele>
        <time>2022-06-09T08:17:34Z</time>
      </trkpt>
      <trkpt lat="48.59767" lon="1.9726">
        <ele>131.6</ele>
        <time>2022-06-09T08:17:41Z</time>
      </trkpt>
      <trkpt lat="48.5976" lon="1.97251">
        <ele>132</ele>
        <time>2022-06-09T08:17:47Z</time>
      </trkpt>
      <trkpt lat="48.59753" lon="1.97241">
        <ele>132</ele>
        <time>2022-06-09T08:17:54Z</time>
      </trkpt>
      <trkpt lat="48.59744" lon="1.9724">
        <ele>131.8</ele>
        <time>2022-06-09T08:18:00Z</time>
      </trkpt>
      <trkpt lat="48.59733" lon="1.97239">
        <ele>131.4</ele>
        <time>2022-06-09T08:18:06Z</time>
      </trkpt>
      <trkpt lat="48.59724" lon="1.97238">
        <ele>131.1</ele>
        <time>2022-06-09T08:18:13Z</time>
      </trkpt>
      <trkpt lat="48.59715" lon="1.97238">
        <ele>130.8</ele>
        <time>2022-06-09T08:18:20Z</time>
      </trkpt>
      <trkpt lat="48.59705" lon="1.97242">
        <ele>130.5</ele>
        <time>2022-06-09T08:18:28Z</time>
      </trkpt>
      <trkpt lat="48.59695" lon="1.97245">
        <ele>130.2</ele>
        <time>2022-06-09T08:18:34Z</time>
      </trkpt>
      <trkpt lat="48.59687" lon="1.97253">
        <ele>130.3</ele>
        <time>2022-06-09T08:18:42Z</time>
      </trkpt>
      <trkpt lat="48.59678" lon="1.97257">
        <ele>130.6</ele>
        <time>2022-06-09T08:18:47Z</time>
      </trkpt>
      <trkpt lat="48.59668" lon="1.97261">
        <ele>131</ele>
        <time>2022-06-09T08:18:55Z</time>
      </trkpt>
      <trkpt lat="48.59658" lon="1.97267">
        <ele>131.6</ele>
        <time>2022-06-09T08:19:02Z</time>
      </trkpt>
      <trkpt lat="48.5965" lon="1.97274">
        <ele>132.2</ele>
        <time>2022-06-09T08:19:09Z</time>
      </trkpt>
      <trkpt lat="48.5964" lon="1.9728">
        <ele>132.9</ele>
        <time>2022-06-09T08:19:17Z</time>
      </trkpt>
      <trkpt lat="48.59632" lon="1.97285">
        <ele>133.5</ele>
        <time>2022-06-09T08:19:23Z</time>
      </trkpt>
      <trkpt lat="48.59622" lon="1.97289">
        <ele>134.2</ele>
        <time>2022-06-09T08:19:29Z</time>
      </trkpt>
      <trkpt lat="48.59613" lon="1.97291">
        <ele>134.9</ele>
        <time>2022-06-09T08:19:37Z</time>
      </trkpt>
      <trkpt lat="48.59605" lon="1.973">
        <ele>135.5</ele>
        <time>2022-06-09T08:19:43Z</time>
      </trkpt>
      <trkpt lat="48.59598" lon="1.97308">
        <ele>135.9</ele>
        <time>2022-06-09T08:19:51Z</time>
      </trkpt>
      <trkpt lat="48.59588" lon="1.97309">
        <ele>136.6</ele>
        <time>2022-06-09T08:19:59Z</time>
      </trkpt>
      <trkpt lat="48.59578" lon="1.97311">
        <ele>137.2</ele>
        <time>2022-06-09T08:20:06Z</time>
      </trkpt>
      <trkpt lat="48.59568" lon="1.97316">
        <ele>137.5</ele>
        <time>2022-06-09T08:20:14Z</time>
      </trkpt>
      <trkpt lat="48.59559" lon="1.97321">
        <ele>137.7</ele>
        <time>2022-06-09T08:20:20Z</time>
      </trkpt>
      <trkpt lat="48.5955" lon="1.97326">
        <ele>138.1</ele>
        <time>2022-06-09T08:20:28Z</time>
      </trkpt>
      <trkpt lat="48.59541" lon="1.97332">
        <ele>138.7</ele>
        <time>2022-06-09T08:20:34Z</time>
      </trkpt>
      <trkpt lat="48.59533" lon="1.97337">
        <ele>139.1</ele>
        <time>2022-06-09T08:20:40Z</time>
      </trkpt>
      <trkpt lat="48.59525" lon="1.97345">
        <ele>139</ele>
        <time>2022-06-09T08:20:47Z</time>
      </trkpt>
      <trkpt lat="48.59517" lon="1.97352">
        <ele>139.1</ele>
        <time>2022-06-09T08:20:55Z</time>
      </trkpt>
      <trkpt lat="48.59522" lon="1.97341">
        <ele>139.8</ele>
        <time>2022-06-09T08:21:15Z</time>
      </trkpt>
      <trkpt lat="48.59529" lon="1.97328">
        <ele>140.3</ele>
        <time>2022-06-09T08:21:25Z</time>
      </trkpt>
      <trkpt lat="48.59535" lon="1.97317">
        <ele>140.5</ele>
        <time>2022-06-09T08:21:33Z</time>
      </trkpt>
      <trkpt lat="48.59539" lon="1.97304">
        <ele>140.8</ele>
        <time>2022-06-09T08:21:41Z</time>
      </trkpt>
      <trkpt lat="48.59546" lon="1.97293">
        <ele>141</ele>
        <time>2022-06-09T08:21:49Z</time>
      </trkpt>
      <trkpt lat="48.59553" lon="1.97282">
        <ele>141</ele>
        <time>2022-06-09T08:21:57Z</time>
      </trkpt>
      <trkpt lat="48.59559" lon="1.9727">
        <ele>140.9</ele>
        <time>2022-06-09T08:22:05Z</time>
      </trkpt>
      <trkpt lat="48.59564" lon="1.97256">
        <ele>140.6</ele>
        <time>2022-06-09T08:22:12Z</time>
      </trkpt>
      <trkpt lat="48.59569" lon="1.97245">
        <ele>139.9</ele>
        <time>2022-06-09T08:22:18Z</time>
      </trkpt>
      <trkpt lat="48.59575" lon="1.97233">
        <ele>139.1</ele>
        <time>2022-06-09T08:22:25Z</time>
      </trkpt>
      <trkpt lat="48.59581" lon="1.97222">
        <ele>138.3</ele>
        <time>2022-06-09T08:22:31Z</time>
      </trkpt>
      <trkpt lat="48.59586" lon="1.97211">
        <ele>137.3</ele>
        <time>2022-06-09T08:22:36Z</time>
      </trkpt>
      <trkpt lat="48.59591" lon="1.97199">
        <ele>136.5</ele>
        <time>2022-06-09T08:22:43Z</time>
      </trkpt>
      <trkpt lat="48.59598" lon="1.9719">
        <ele>136</ele>
        <time>2022-06-09T08:22:50Z</time>
      </trkpt>
      <trkpt lat="48.59603" lon="1.97178">
        <ele>135.6</ele>
        <time>2022-06-09T08:22:58Z</time>
      </trkpt>
      <trkpt lat="48.59608" lon="1.97166">
        <ele>135.2</ele>
        <time>2022-06-09T08:23:04Z</time>
      </trkpt>
      <trkpt lat="48.59615" lon="1.97156">
        <ele>134.9</ele>
        <time>2022-06-09T08:23:11Z</time>
      </trkpt>
      <trkpt lat="48.59621" lon="1.97145">
        <ele>134.6</ele>
        <time>2022-06-09T08:23:18Z</time>
      </trkpt>
      <trkpt lat="48.59628" lon="1.97135">
        <ele>134.4</ele>
        <time>2022-06-09T08:23:24Z</time>
      </trkpt>
      <trkpt lat="48.59633" lon="1.97124">
        <ele>134.2</ele>
        <time>2022-06-09T08:23:31Z</time>
      </trkpt>
      <trkpt lat="48.59641" lon="1.97113">
        <ele>134</ele>
        <time>2022-06-09T08:23:38Z</time>
      </trkpt>
      <trkpt lat="48.59645" lon="1.971">
        <ele>134</ele>
        <time>2022-06-09T08:23:44Z</time>
      </trkpt>
      <trkpt lat="48.5965" lon="1.97086">
        <ele>134</ele>
        <time>2022-06-09T08:23:50Z</time>
      </trkpt>
      <trkpt lat="48.59657" lon="1.97076">
        <ele>134</ele>
        <time>2022-06-09T08:23:57Z</time>
      </trkpt>
      <trkpt lat="48.59663" lon="1.97065">
        <ele>134</ele>
        <time>2022-06-09T08:24:06Z</time>
      </trkpt>
      <trkpt lat="48.59668" lon="1.97052">
        <ele>134.2</ele>
        <time>2022-06-09T08:24:12Z</time>
      </trkpt>
      <trkpt lat="48.59673" lon="1.97041">
        <ele>134.6</ele>
        <time>2022-06-09T08:24:19Z</time>
      </trkpt>
      <trkpt lat="48.59679" lon="1.97028">
        <ele>135</ele>
        <time>2022-06-09T08:24:28Z</time>
      </trkpt>
      <trkpt lat="48.59686" lon="1.97016">
        <ele>135.3</ele>
        <time>2022-06-09T08:24:36Z</time>
      </trkpt>
      <trkpt lat="48.59693" lon="1.97005">
        <ele>135.8</ele>
        <time>2022-06-09T08:24:44Z</time>
      </trkpt>
      <trkpt lat="48.59697" lon="1.96992">
        <ele>136.4</ele>
        <time>2022-06-09T08:24:51Z</time>
      </trkpt>
      <trkpt lat="48.59702" lon="1.9698">
        <ele>137</ele>
        <time>2022-06-09T08:24:57Z</time>
      </trkpt>
      <trkpt lat="48.59706" lon="1.96967">
        <ele>137.5</ele>
        <time>2022-06-09T08:25:05Z</time>
      </trkpt>
      <trkpt lat="48.59714" lon="1.96958">
        <ele>138.1</ele>
        <time>2022-06-09T08:25:14Z</time>
      </trkpt>
      <trkpt lat="48.5972" lon="1.96946">
        <ele>138.8</ele>
        <time>2022-06-09T08:25:21Z</time>
      </trkpt>
      <trkpt lat="48.59726" lon="1.96936">
        <ele>139.6</ele>
        <time>2022-06-09T08:25:29Z</time>
      </trkpt>
      <trkpt lat="48.5973" lon="1.96923">
        <ele>140.6</ele>
        <time>2022-06-09T08:25:37Z</time>
      </trkpt>
      <trkpt lat="48.59737" lon="1.96914">
        <ele>141.7</ele>
        <time>2022-06-09T08:25:46Z</time>
      </trkpt>
      <trkpt lat="48.59741" lon="1.96899">
        <ele>142.7</ele>
        <time>2022-06-09T08:25:54Z</time>
      </trkpt>
      <trkpt lat="48.59747" lon="1.96887">
        <ele>143.8</ele>
        <time>2022-06-09T08:26:01Z</time>
      </trkpt>
      <trkpt lat="48.59754" lon="1.96876">
        <ele>144.8</ele>
        <time>2022-06-09T08:26:09Z</time>
      </trkpt>
      <trkpt lat="48.59759" lon="1.96864">
        <ele>145.8</ele>
        <time>2022-06-09T08:26:15Z</time>
      </trkpt>
      <trkpt lat="48.59762" lon="1.9685">
        <ele>146.9</ele>
        <time>2022-06-09T08:26:22Z</time>
      </trkpt>
      <trkpt lat="48.59768" lon="1.96839">
        <ele>148</ele>
        <time>2022-06-09T08:26:31Z</time>
      </trkpt>
      <trkpt lat="48.59774" lon="1.96828">
        <ele>149.1</ele>
        <time>2022-06-09T08:26:40Z</time>
      </trkpt>
      <trkpt lat="48.5978" lon="1.96816">
        <ele>150.4</ele>
        <time>2022-06-09T08:26:48Z</time>
      </trkpt>
      <trkpt lat="48.59786" lon="1.96806">
        <ele>151.6</ele>
        <time>2022-06-09T08:26:56Z</time>
      </trkpt>
      <trkpt lat="48.59791" lon="1.96793">
        <ele>152.8</ele>
        <time>2022-06-09T08:27:07Z</time>
      </trkpt>
      <trkpt lat="48.59797" lon="1.96782">
        <ele>154</ele>
        <time>2022-06-09T08:27:15Z</time>
      </trkpt>
      <trkpt lat="48.59802" lon="1.96769">
        <ele>155.1</ele>
        <time>2022-06-09T08:27:23Z</time>
      </trkpt>
      <trkpt lat="48.59808" lon="1.96758">
        <ele>155.7</ele>
        <time>2022-06-09T08:27:31Z</time>
      </trkpt>
      <trkpt lat="48.59812" lon="1.96744">
        <ele>156.2</ele>
        <time>2022-06-09T08:27:39Z</time>
      </trkpt>
      <trkpt lat="48.59817" lon="1.96732">
        <ele>156.6</ele>
        <time>2022-06-09T08:27:47Z</time>
      </trkpt>
      <trkpt lat="48.59823" lon="1.9672">
        <ele>157</ele>
        <time>2022-06-09T08:27:55Z</time>
      </trkpt>
      <trkpt lat="48.59829" lon="1.96709">
        <ele>157.1</ele>
        <time>2022-06-09T08:28:02Z</time>
      </trkpt>
      <trkpt lat="48.59835" lon="1.96698">
        <ele>157</ele>
        <time>2022-06-09T08:28:10Z</time>
      </trkpt>
      <trkpt lat="48.59841" lon="1.96686">
        <ele>157.2</ele>
        <time>2022-06-09T08:28:17Z</time>
      </trkpt>
      <trkpt lat="48.59846" lon="1.96673">
        <ele>157.4</ele>
        <time>2022-06-09T08:28:25Z</time>
      </trkpt>
      <trkpt lat="48.59852" lon="1.96662">
        <ele>157.3</ele>
        <time>2022-06-09T08:28:32Z</time>
      </trkpt>
      <trkpt lat="48.59859" lon="1.96652">
        <ele>157.1</ele>
        <time>2022-06-09T08:28:38Z</time>
      </trkpt>
      <trkpt lat="48.59865" lon="1.96641">
        <ele>156.9</ele>
        <time>2022-06-09T08:28:47Z</time>
      </trkpt>
      <trkpt lat="48.59872" lon="1.96631">
        <ele>156.5</ele>
        <time>2022-06-09T08:28:54Z</time>
      </trkpt>
      <trkpt lat="48.59875" lon="1.96618">
        <ele>156.1</ele>
        <time>2022-06-09T08:29:00Z</time>
      </trkpt>
      <trkpt lat="48.59879" lon="1.96605">
        <ele>155.5</ele>
        <time>2022-06-09T08:31:08Z</time>
      </trkpt>
      <trkpt lat="48.59885" lon="1.96593">
        <ele>154.7</ele>
        <time>2022-06-09T08:31:17Z</time>
      </trkpt>
      <trkpt lat="48.59891" lon="1.96582">
        <ele>153.5</ele>
        <time>2022-06-09T08:31:26Z</time>
      </trkpt>
      <trkpt lat="48.59897" lon="1.96571">
        <ele>151.9</ele>
        <time>2022-06-09T08:31:36Z</time>
      </trkpt>
      <trkpt lat="48.59905" lon="1.96562">
        <ele>150.2</ele>
        <time>2022-06-09T08:31:46Z</time>
      </trkpt>
      <trkpt lat="48.5991" lon="1.9655">
        <ele>149.2</ele>
        <time>2022-06-09T08:31:53Z</time>
      </trkpt>
      <trkpt lat="48.59916" lon="1.96538">
        <ele>148.1</ele>
        <time>2022-06-09T08:32:00Z</time>
      </trkpt>
      <trkpt lat="48.59921" lon="1.96526">
        <ele>147.3</ele>
        <time>2022-06-09T08:32:10Z</time>
      </trkpt>
      <trkpt lat="48.59926" lon="1.96514">
        <ele>146.8</ele>
        <time>2022-06-09T08:32:19Z</time>
      </trkpt>
      <trkpt lat="48.59933" lon="1.96503">
        <ele>146</ele>
        <time>2022-06-09T08:32:27Z</time>
      </trkpt>
      <trkpt lat="48.59939" lon="1.96492">
        <ele>145.3</ele>
        <time>2022-06-09T08:32:34Z</time>
      </trkpt>
      <trkpt lat="48.59944" lon="1.96481">
        <ele>144.8</ele>
        <time>2022-06-09T08:32:41Z</time>
      </trkpt>
      <trkpt lat="48.59952" lon="1.96471">
        <ele>144.3</ele>
        <time>2022-06-09T08:32:48Z</time>
      </trkpt>
      <trkpt lat="48.59958" lon="1.9646">
        <ele>144</ele>
        <time>2022-06-09T08:32:55Z</time>
      </trkpt>
      <trkpt lat="48.59965" lon="1.96449">
        <ele>143.6</ele>
        <time>2022-06-09T08:33:01Z</time>
      </trkpt>
      <trkpt lat="48.59972" lon="1.9644">
        <ele>143.3</ele>
        <time>2022-06-09T08:33:08Z</time>
      </trkpt>
      <trkpt lat="48.59978" lon="1.96428">
        <ele>144.2</ele>
        <time>2022-06-09T08:33:16Z</time>
      </trkpt>
      <trkpt lat="48.59983" lon="1.96415">
        <ele>145.2</ele>
        <time>2022-06-09T08:33:24Z</time>
      </trkpt>
      <trkpt lat="48.59988" lon="1.96403">
        <ele>146.5</ele>
        <time>2022-06-09T08:33:33Z</time>
      </trkpt>
      <trkpt lat="48.59993" lon="1.9639">
        <ele>147.8</ele>
        <time>2022-06-09T08:33:41Z</time>
      </trkpt>
      <trkpt lat="48.59998" lon="1.96377">
        <ele>149.3</ele>
        <time>2022-06-09T08:33:48Z</time>
      </trkpt>
      <trkpt lat="48.60002" lon="1.96364">
        <ele>150.6</ele>
        <time>2022-06-09T08:33:57Z</time>
      </trkpt>
      <trkpt lat="48.60008" lon="1.96352">
        <ele>151.6</ele>
        <time>2022-06-09T08:34:06Z</time>
      </trkpt>
      <trkpt lat="48.60013" lon="1.9634">
        <ele>152.4</ele>
        <time>2022-06-09T08:34:12Z</time>
      </trkpt>
      <trkpt lat="48.60019" lon="1.96329">
        <ele>152.8</ele>
        <time>2022-06-09T08:34:19Z</time>
      </trkpt>
      <trkpt lat="48.60026" lon="1.96318">
        <ele>152.7</ele>
        <time>2022-06-09T08:34:26Z</time>
      </trkpt>
      <trkpt lat="48.6003" lon="1.96305">
        <ele>152.7</ele>
        <time>2022-06-09T08:34:33Z</time>
      </trkpt>
      <trkpt lat="48.60036" lon="1.96293">
        <ele>152.4</ele>
        <time>2022-06-09T08:34:40Z</time>
      </trkpt>
      <trkpt lat="48.60041" lon="1.96281">
        <ele>152.4</ele>
        <time>2022-06-09T08:34:46Z</time>
      </trkpt>
      <trkpt lat="48.60046" lon="1.96269">
        <ele>152.5</ele>
        <time>2022-06-09T08:34:53Z</time>
      </trkpt>
      <trkpt lat="48.60052" lon="1.96258">
        <ele>152.8</ele>
        <time>2022-06-09T08:35:00Z</time>
      </trkpt>
      <trkpt lat="48.60056" lon="1.96243">
        <ele>153.2</ele>
        <time>2022-06-09T08:35:08Z</time>
      </trkpt>
      <trkpt lat="48.60061" lon="1.96233">
        <ele>151.7</ele>
        <time>2022-06-09T08:35:16Z</time>
      </trkpt>
      <trkpt lat="48.60067" lon="1.96221">
        <ele>150.3</ele>
        <time>2022-06-09T08:35:24Z</time>
      </trkpt>
      <trkpt lat="48.60073" lon="1.96211">
        <ele>148.5</ele>
        <time>2022-06-09T08:35:32Z</time>
      </trkpt>
      <trkpt lat="48.60079" lon="1.96201">
        <ele>146.9</ele>
        <time>2022-06-09T08:35:41Z</time>
      </trkpt>
      <trkpt lat="48.60085" lon="1.96191">
        <ele>145.4</ele>
        <time>2022-06-09T08:35:48Z</time>
      </trkpt>
      <trkpt lat="48.60091" lon="1.96179">
        <ele>143.8</ele>
        <time>2022-06-09T08:35:57Z</time>
      </trkpt>
      <trkpt lat="48.60096" lon="1.96167">
        <ele>141.9</ele>
        <time>2022-06-09T08:36:07Z</time>
      </trkpt>
      <trkpt lat="48.60105" lon="1.9616">
        <ele>138.3</ele>
        <time>2022-06-09T08:36:20Z</time>
      </trkpt>
      <trkpt lat="48.60112" lon="1.9615">
        <ele>135</ele>
        <time>2022-06-09T08:36:27Z</time>
      </trkpt>
      <trkpt lat="48.6012" lon="1.96139">
        <ele>132.5</ele>
        <time>2022-06-09T08:36:35Z</time>
      </trkpt>
      <trkpt lat="48.60123" lon="1.96127">
        <ele>131.3</ele>
        <time>2022-06-09T08:36:43Z</time>
      </trkpt>
      <trkpt lat="48.6013" lon="1.96115">
        <ele>128.8</ele>
        <time>2022-06-09T08:36:52Z</time>
      </trkpt>
      <trkpt lat="48.60136" lon="1.96103">
        <ele>126.6</ele>
        <time>2022-06-09T08:36:59Z</time>
      </trkpt>
      <trkpt lat="48.6014" lon="1.96089">
        <ele>125.3</ele>
        <time>2022-06-09T08:37:08Z</time>
      </trkpt>
      <trkpt lat="48.60147" lon="1.96081">
        <ele>125.5</ele>
        <time>2022-06-09T08:37:17Z</time>
      </trkpt>
      <trkpt lat="48.60148" lon="1.96095">
        <ele>126.1</ele>
        <time>2022-06-09T08:37:30Z</time>
      </trkpt>
      <trkpt lat="48.6015" lon="1.96109">
        <ele>126.7</ele>
        <time>2022-06-09T08:37:45Z</time>
      </trkpt>
      <trkpt lat="48.60151" lon="1.96123">
        <ele>127.3</ele>
        <time>2022-06-09T08:37:55Z</time>
      </trkpt>
      <trkpt lat="48.60146" lon="1.96135">
        <ele>127.4</ele>
        <time>2022-06-09T08:38:05Z</time>
      </trkpt>
      <trkpt lat="48.60142" lon="1.96147">
        <ele>127.8</ele>
        <time>2022-06-09T08:38:13Z</time>
      </trkpt>
      <trkpt lat="48.60145" lon="1.96162">
        <ele>128.7</ele>
        <time>2022-06-09T08:38:20Z</time>
      </trkpt>
      <trkpt lat="48.60146" lon="1.96177">
        <ele>129.1</ele>
        <time>2022-06-09T08:38:29Z</time>
      </trkpt>
      <trkpt lat="48.60143" lon="1.9619">
        <ele>129.1</ele>
        <time>2022-06-09T08:38:36Z</time>
      </trkpt>
      <trkpt lat="48.60142" lon="1.96204">
        <ele>129.5</ele>
        <time>2022-06-09T08:38:44Z</time>
      </trkpt>
      <trkpt lat="48.60139" lon="1.96219">
        <ele>129.9</ele>
        <time>2022-06-09T08:38:52Z</time>
      </trkpt>
      <trkpt lat="48.60141" lon="1.96233">
        <ele>130.9</ele>
        <time>2022-06-09T08:38:58Z</time>
      </trkpt>
      <trkpt lat="48.60147" lon="1.96246">
        <ele>132.3</ele>
        <time>2022-06-09T08:39:05Z</time>
      </trkpt>
      <trkpt lat="48.60154" lon="1.96255">
        <ele>133.4</ele>
        <time>2022-06-09T08:39:11Z</time>
      </trkpt>
      <trkpt lat="48.60161" lon="1.96266">
        <ele>134.3</ele>
        <time>2022-06-09T08:39:18Z</time>
      </trkpt>
      <trkpt lat="48.60168" lon="1.96275">
        <ele>135</ele>
        <time>2022-06-09T08:39:26Z</time>
      </trkpt>
      <trkpt lat="48.60173" lon="1.96287">
        <ele>135.7</ele>
        <time>2022-06-09T08:39:34Z</time>
      </trkpt>
      <trkpt lat="48.60176" lon="1.96301">
        <ele>136.2</ele>
        <time>2022-06-09T08:39:42Z</time>
      </trkpt>
      <trkpt lat="48.60181" lon="1.96315">
        <ele>136.5</ele>
        <time>2022-06-09T08:39:49Z</time>
      </trkpt>
      <trkpt lat="48.60181" lon="1.96329">
        <ele>136.5</ele>
        <time>2022-06-09T08:39:58Z</time>
      </trkpt>
      <trkpt lat="48.60182" lon="1.96343">
        <ele>136.7</ele>
        <time>2022-06-09T08:40:06Z</time>
      </trkpt>
      <trkpt lat="48.60184" lon="1.96357">
        <ele>136.9</ele>
        <time>2022-06-09T08:40:13Z</time>
      </trkpt>
      <trkpt lat="48.60191" lon="1.96367">
        <ele>137</ele>
        <time>2022-06-09T08:40:19Z</time>
      </trkpt>
      <trkpt lat="48.60193" lon="1.96381">
        <ele>137</ele>
        <time>2022-06-09T08:40:26Z</time>
      </trkpt>
      <trkpt lat="48.60193" lon="1.96395">
        <ele>136.8</ele>
        <time>2022-06-09T08:40:33Z</time>
      </trkpt>
      <trkpt lat="48.60193" lon="1.96409">
        <ele>136.3</ele>
        <time>2022-06-09T08:40:40Z</time>
      </trkpt>
      <trkpt lat="48.60193" lon="1.96423">
        <ele>135.8</ele>
        <time>2022-06-09T08:40:47Z</time>
      </trkpt>
      <trkpt lat="48.60196" lon="1.96438">
        <ele>135.2</ele>
        <time>2022-06-09T08:40:55Z</time>
      </trkpt>
      <trkpt lat="48.60198" lon="1.96452">
        <ele>134.8</ele>
        <time>2022-06-09T08:41:03Z</time>
      </trkpt>
      <trkpt lat="48.602" lon="1.96466">
        <ele>134.4</ele>
        <time>2022-06-09T08:41:10Z</time>
      </trkpt>
      <trkpt lat="48.60203" lon="1.9648">
        <ele>134.1</ele>
        <time>2022-06-09T08:41:17Z</time>
      </trkpt>
      <trkpt lat="48.60203" lon="1.96494">
        <ele>133.8</ele>
        <time>2022-06-09T08:41:25Z</time>
      </trkpt>
      <trkpt lat="48.60203" lon="1.96508">
        <ele>133.5</ele>
        <time>2022-06-09T08:41:33Z</time>
      </trkpt>
      <trkpt lat="48.60201" lon="1.96523">
        <ele>133.1</ele>
        <time>2022-06-09T08:41:41Z</time>
      </trkpt>
      <trkpt lat="48.60202" lon="1.96538">
        <ele>132.6</ele>
        <time>2022-06-09T08:41:49Z</time>
      </trkpt>
      <trkpt lat="48.60202" lon="1.96552">
        <ele>132.1</ele>
        <time>2022-06-09T08:41:56Z</time>
      </trkpt>
      <trkpt lat="48.602" lon="1.96568">
        <ele>131.6</ele>
        <time>2022-06-09T08:42:04Z</time>
      </trkpt>
      <trkpt lat="48.60202" lon="1.96582">
        <ele>131.1</ele>
        <time>2022-06-09T08:42:11Z</time>
      </trkpt>
      <trkpt lat="48.60201" lon="1.96595">
        <ele>130.6</ele>
        <time>2022-06-09T08:42:19Z</time>
      </trkpt>
      <trkpt lat="48.60199" lon="1.96609">
        <ele>130.1</ele>
        <time>2022-06-09T08:42:26Z</time>
      </trkpt>
      <trkpt lat="48.60197" lon="1.96624">
        <ele>130</ele>
        <time>2022-06-09T08:42:31Z</time>
      </trkpt>
      <trkpt lat="48.60196" lon="1.96638">
        <ele>129.9</ele>
        <time>2022-06-09T08:42:38Z</time>
      </trkpt>
      <trkpt lat="48.60194" lon="1.96652">
        <ele>129.5</ele>
        <time>2022-06-09T08:42:45Z</time>
      </trkpt>
      <trkpt lat="48.60193" lon="1.96666">
        <ele>129.1</ele>
        <time>2022-06-09T08:42:51Z</time>
      </trkpt>
      <trkpt lat="48.6019" lon="1.96681">
        <ele>129.3</ele>
        <time>2022-06-09T08:42:57Z</time>
      </trkpt>
      <trkpt lat="48.6019" lon="1.96695">
        <ele>129.3</ele>
        <time>2022-06-09T08:43:03Z</time>
      </trkpt>
      <trkpt lat="48.60198" lon="1.96704">
        <ele>128.8</ele>
        <time>2022-06-09T08:43:07Z</time>
      </trkpt>
      <trkpt lat="48.60202" lon="1.96717">
        <ele>128.5</ele>
        <time>2022-06-09T08:43:14Z</time>
      </trkpt>
      <trkpt lat="48.60205" lon="1.96731">
        <ele>128.3</ele>
        <time>2022-06-09T08:43:20Z</time>
      </trkpt>
      <trkpt lat="48.60208" lon="1.96745">
        <ele>128.1</ele>
        <time>2022-06-09T08:43:27Z</time>
      </trkpt>
      <trkpt lat="48.6021" lon="1.9676">
        <ele>127.9</ele>
        <time>2022-06-09T08:43:34Z</time>
      </trkpt>
      <trkpt lat="48.60207" lon="1.96774">
        <ele>128.1</ele>
        <time>2022-06-09T08:43:41Z</time>
      </trkpt>
      <trkpt lat="48.60211" lon="1.96787">
        <ele>127.7</ele>
        <time>2022-06-09T08:43:46Z</time>
      </trkpt>
      <trkpt lat="48.60217" lon="1.968">
        <ele>127.2</ele>
        <time>2022-06-09T08:43:52Z</time>
      </trkpt>
      <trkpt lat="48.60222" lon="1.96813">
        <ele>126.7</ele>
        <time>2022-06-09T08:43:59Z</time>
      </trkpt>
      <trkpt lat="48.60225" lon="1.96827">
        <ele>126.1</ele>
        <time>2022-06-09T08:44:06Z</time>
      </trkpt>
      <trkpt lat="48.60229" lon="1.96839">
        <ele>125.7</ele>
        <time>2022-06-09T08:44:14Z</time>
      </trkpt>
      <trkpt lat="48.60233" lon="1.96851">
        <ele>125.3</ele>
        <time>2022-06-09T08:44:20Z</time>
      </trkpt>
      <trkpt lat="48.60238" lon="1.96865">
        <ele>124.8</ele>
        <time>2022-06-09T08:44:28Z</time>
      </trkpt>
      <trkpt lat="48.60241" lon="1.96878">
        <ele>124.5</ele>
        <time>2022-06-09T08:44:35Z</time>
      </trkpt>
      <trkpt lat="48.60247" lon="1.96891">
        <ele>124.1</ele>
        <time>2022-06-09T08:44:42Z</time>
      </trkpt>
      <trkpt lat="48.60252" lon="1.96903">
        <ele>123.4</ele>
        <time>2022-06-09T08:44:50Z</time>
      </trkpt>
      <trkpt lat="48.60257" lon="1.96916">
        <ele>122.8</ele>
        <time>2022-06-09T08:44:58Z</time>
      </trkpt>
      <trkpt lat="48.60261" lon="1.96928">
        <ele>122.6</ele>
        <time>2022-06-09T08:45:06Z</time>
      </trkpt>
      <trkpt lat="48.60266" lon="1.9694">
        <ele>122.4</ele>
        <time>2022-06-09T08:45:13Z</time>
      </trkpt>
      <trkpt lat="48.60271" lon="1.96952">
        <ele>122.1</ele>
        <time>2022-06-09T08:45:21Z</time>
      </trkpt>
      <trkpt lat="48.60273" lon="1.96966">
        <ele>121.5</ele>
        <time>2022-06-09T08:45:28Z</time>
      </trkpt>
      <trkpt lat="48.6028" lon="1.96977">
        <ele>121.1</ele>
        <time>2022-06-09T08:45:34Z</time>
      </trkpt>
      <trkpt lat="48.60284" lon="1.9699">
        <ele>121.1</ele>
        <time>2022-06-09T08:46:17Z</time>
      </trkpt>
      <trkpt lat="48.6029" lon="1.97001">
        <ele>121</ele>
        <time>2022-06-09T08:47:31Z</time>
      </trkpt>
      <trkpt lat="48.60293" lon="1.97015">
        <ele>120.7</ele>
        <time>2022-06-09T08:47:39Z</time>
      </trkpt>
      <trkpt lat="48.60294" lon="1.97029">
        <ele>120.4</ele>
        <time>2022-06-09T08:47:46Z</time>
      </trkpt>
      <trkpt lat="48.60294" lon="1.97044">
        <ele>120.6</ele>
        <time>2022-06-09T08:47:54Z</time>
      </trkpt>
      <trkpt lat="48.60297" lon="1.97058">
        <ele>120.6</ele>
        <time>2022-06-09T08:48:07Z</time>
      </trkpt>
      <trkpt lat="48.60302" lon="1.97071">
        <ele>120.2</ele>
        <time>2022-06-09T08:48:15Z</time>
      </trkpt>
      <trkpt lat="48.6031" lon="1.97082">
        <ele>120</ele>
        <time>2022-06-09T08:48:22Z</time>
      </trkpt>
      <trkpt lat="48.60316" lon="1.97093">
        <ele>119.9</ele>
        <time>2022-06-09T08:48:29Z</time>
      </trkpt>
      <trkpt lat="48.60323" lon="1.97102">
        <ele>119.6</ele>
        <time>2022-06-09T08:48:36Z</time>
      </trkpt>
      <trkpt lat="48.60331" lon="1.97111">
        <ele>119.1</ele>
        <time>2022-06-09T08:48:42Z</time>
      </trkpt>
      <trkpt lat="48.60339" lon="1.97119">
        <ele>119.3</ele>
        <time>2022-06-09T08:48:48Z</time>
      </trkpt>
      <trkpt lat="48.60347" lon="1.97128">
        <ele>119.4</ele>
        <time>2022-06-09T08:48:54Z</time>
      </trkpt>
      <trkpt lat="48.60354" lon="1.97138">
        <ele>119</ele>
        <time>2022-06-09T08:49:00Z</time>
      </trkpt>
      <trkpt lat="48.60362" lon="1.97148">
        <ele>118.8</ele>
        <time>2022-06-09T08:49:06Z</time>
      </trkpt>
      <trkpt lat="48.60368" lon="1.9716">
        <ele>118.8</ele>
        <time>2022-06-09T08:49:12Z</time>
      </trkpt>
      <trkpt lat="48.60373" lon="1.97172">
        <ele>118.7</ele>
        <time>2022-06-09T08:49:20Z</time>
      </trkpt>
      <trkpt lat="48.60378" lon="1.97185">
        <ele>118.4</ele>
        <time>2022-06-09T08:49:27Z</time>
      </trkpt>
      <trkpt lat="48.60385" lon="1.97196">
        <ele>117.9</ele>
        <time>2022-06-09T08:49:34Z</time>
      </trkpt>
      <trkpt lat="48.60393" lon="1.97205">
        <ele>117.7</ele>
        <time>2022-06-09T08:49:39Z</time>
      </trkpt>
      <trkpt lat="48.60402" lon="1.97213">
        <ele>117.5</ele>
        <time>2022-06-09T08:49:46Z</time>
      </trkpt>
      <trkpt lat="48.60409" lon="1.97222">
        <ele>117</ele>
        <time>2022-06-09T08:49:52Z</time>
      </trkpt>
      <trkpt lat="48.60417" lon="1.97229">
        <ele>116.8</ele>
        <time>2022-06-09T08:49:58Z</time>
      </trkpt>
      <trkpt lat="48.60424" lon="1.97237">
        <ele>116.5</ele>
        <time>2022-06-09T08:50:03Z</time>
      </trkpt>
      <trkpt lat="48.60431" lon="1.97246">
        <ele>116.1</ele>
        <time>2022-06-09T08:50:08Z</time>
      </trkpt>
      <trkpt lat="48.60438" lon="1.97255">
        <ele>115.8</ele>
        <time>2022-06-09T08:50:14Z</time>
      </trkpt>
      <trkpt lat="48.60447" lon="1.97259">
        <ele>115.6</ele>
        <time>2022-06-09T08:50:19Z</time>
      </trkpt>
      <trkpt lat="48.60456" lon="1.97267">
        <ele>115</ele>
        <time>2022-06-09T08:50:25Z</time>
      </trkpt>
      <trkpt lat="48.60465" lon="1.97274">
        <ele>114.4</ele>
        <time>2022-06-09T08:50:32Z</time>
      </trkpt>
      <trkpt lat="48.60473" lon="1.97281">
        <ele>114</ele>
        <time>2022-06-09T08:50:38Z</time>
      </trkpt>
      <trkpt lat="48.60482" lon="1.97286">
        <ele>113.9</ele>
        <time>2022-06-09T08:50:45Z</time>
      </trkpt>
      <trkpt lat="48.60491" lon="1.97291">
        <ele>113.7</ele>
        <time>2022-06-09T08:50:54Z</time>
      </trkpt>
      <trkpt lat="48.60501" lon="1.97295">
        <ele>113.4</ele>
        <time>2022-06-09T08:51:01Z</time>
      </trkpt>
      <trkpt lat="48.60511" lon="1.973">
        <ele>113.1</ele>
        <time>2022-06-09T08:51:08Z</time>
      </trkpt>
      <trkpt lat="48.60519" lon="1.97308">
        <ele>113</ele>
        <time>2022-06-09T08:51:15Z</time>
      </trkpt>
      <trkpt lat="48.60527" lon="1.97314">
        <ele>113</ele>
        <time>2022-06-09T08:51:23Z</time>
      </trkpt>
      <trkpt lat="48.60537" lon="1.97317">
        <ele>112.7</ele>
        <time>2022-06-09T08:51:30Z</time>
      </trkpt>
      <trkpt lat="48.60546" lon="1.97319">
        <ele>112.4</ele>
        <time>2022-06-09T08:51:37Z</time>
      </trkpt>
      <trkpt lat="48.60554" lon="1.97325">
        <ele>112</ele>
        <time>2022-06-09T08:51:44Z</time>
      </trkpt>
      <trkpt lat="48.60561" lon="1.97336">
        <ele>112</ele>
        <time>2022-06-09T08:51:51Z</time>
      </trkpt>
      <trkpt lat="48.6057" lon="1.97344">
        <ele>111.8</ele>
        <time>2022-06-09T08:51:57Z</time>
      </trkpt>
      <trkpt lat="48.60577" lon="1.97352">
        <ele>111.5</ele>
        <time>2022-06-09T08:52:04Z</time>
      </trkpt>
      <trkpt lat="48.60585" lon="1.9736">
        <ele>111</ele>
        <time>2022-06-09T08:52:12Z</time>
      </trkpt>
      <trkpt lat="48.60593" lon="1.97367">
        <ele>110.9</ele>
        <time>2022-06-09T08:52:19Z</time>
      </trkpt>
      <trkpt lat="48.60601" lon="1.97376">
        <ele>110.7</ele>
        <time>2022-06-09T08:52:26Z</time>
      </trkpt>
      <trkpt lat="48.60606" lon="1.97389">
        <ele>110.2</ele>
        <time>2022-06-09T08:52:34Z</time>
      </trkpt>
      <trkpt lat="48.60612" lon="1.97402">
        <ele>110</ele>
        <time>2022-06-09T08:52:41Z</time>
      </trkpt>
      <trkpt lat="48.60618" lon="1.97412">
        <ele>109.7</ele>
        <time>2022-06-09T08:52:47Z</time>
      </trkpt>
      <trkpt lat="48.60625" lon="1.97422">
        <ele>109.5</ele>
        <time>2022-06-09T08:52:53Z</time>
      </trkpt>
      <trkpt lat="48.60632" lon="1.97432">
        <ele>109.2</ele>
        <time>2022-06-09T08:53:00Z</time>
      </trkpt>
      <trkpt lat="48.6064" lon="1.9744">
        <ele>108.9</ele>
        <time>2022-06-09T08:53:07Z</time>
      </trkpt>
      <trkpt lat="48.60646" lon="1.97451">
        <ele>108.5</ele>
        <time>2022-06-09T08:53:15Z</time>
      </trkpt>
      <trkpt lat="48.60655" lon="1.9746">
        <ele>107.9</ele>
        <time>2022-06-09T08:53:21Z</time>
      </trkpt>
      <trkpt lat="48.60663" lon="1.97469">
        <ele>107.3</ele>
        <time>2022-06-09T08:53:29Z</time>
      </trkpt>
      <trkpt lat="48.60673" lon="1.97474">
        <ele>106.8</ele>
        <time>2022-06-09T08:53:36Z</time>
      </trkpt>
      <trkpt lat="48.60682" lon="1.97479">
        <ele>106.5</ele>
        <time>2022-06-09T08:53:42Z</time>
      </trkpt>
      <trkpt lat="48.60691" lon="1.97483">
        <ele>106.1</ele>
        <time>2022-06-09T08:53:48Z</time>
      </trkpt>
      <trkpt lat="48.607" lon="1.97484">
        <ele>106</ele>
        <time>2022-06-09T08:53:54Z</time>
      </trkpt>
      <trkpt lat="48.6071" lon="1.97482">
        <ele>106</ele>
        <time>2022-06-09T08:54:01Z</time>
      </trkpt>
      <trkpt lat="48.6072" lon="1.97479">
        <ele>106</ele>
        <time>2022-06-09T08:54:08Z</time>
      </trkpt>
      <trkpt lat="48.6073" lon="1.97477">
        <ele>105.7</ele>
        <time>2022-06-09T08:54:14Z</time>
      </trkpt>
      <trkpt lat="48.60739" lon="1.97471">
        <ele>105.4</ele>
        <time>2022-06-09T08:54:21Z</time>
      </trkpt>
      <trkpt lat="48.60748" lon="1.97466">
        <ele>105.1</ele>
        <time>2022-06-09T08:54:28Z</time>
      </trkpt>
      <trkpt lat="48.60756" lon="1.97458">
        <ele>105</ele>
        <time>2022-06-09T08:54:35Z</time>
      </trkpt>
      <trkpt lat="48.60756" lon="1.97443">
        <ele>105</ele>
        <time>2022-06-09T08:54:44Z</time>
      </trkpt>
      <trkpt lat="48.60752" lon="1.97429">
        <ele>105</ele>
        <time>2022-06-09T08:54:51Z</time>
      </trkpt>
      <trkpt lat="48.60747" lon="1.97418">
        <ele>105.1</ele>
        <time>2022-06-09T08:54:59Z</time>
      </trkpt>
      <trkpt lat="48.6074" lon="1.97409">
        <ele>105.4</ele>
        <time>2022-06-09T08:55:06Z</time>
      </trkpt>
      <trkpt lat="48.60732" lon="1.97401">
        <ele>105.6</ele>
        <time>2022-06-09T08:55:13Z</time>
      </trkpt>
      <trkpt lat="48.60729" lon="1.97388">
        <ele>105.8</ele>
        <time>2022-06-09T08:55:20Z</time>
      </trkpt>
      <trkpt lat="48.60727" lon="1.97374">
        <ele>105.8</ele>
        <time>2022-06-09T08:55:26Z</time>
      </trkpt>
      <trkpt lat="48.60725" lon="1.97361">
        <ele>105.9</ele>
        <time>2022-06-09T08:55:34Z</time>
      </trkpt>
      <trkpt lat="48.60722" lon="1.97348">
        <ele>106.5</ele>
        <time>2022-06-09T08:55:42Z</time>
      </trkpt>
      <trkpt lat="48.60719" lon="1.97334">
        <ele>107.1</ele>
        <time>2022-06-09T08:55:49Z</time>
      </trkpt>
      <trkpt lat="48.60716" lon="1.97321">
        <ele>107.2</ele>
        <time>2022-06-09T08:55:56Z</time>
      </trkpt>
      <trkpt lat="48.60711" lon="1.97308">
        <ele>107.4</ele>
        <time>2022-06-09T08:56:04Z</time>
      </trkpt>
      <trkpt lat="48.60707" lon="1.97295">
        <ele>107.5</ele>
        <time>2022-06-09T08:56:11Z</time>
      </trkpt>
      <trkpt lat="48.60704" lon="1.9728">
        <ele>107.6</ele>
        <time>2022-06-09T08:56:18Z</time>
      </trkpt>
      <trkpt lat="48.60701" lon="1.97265">
        <ele>108.2</ele>
        <time>2022-06-09T08:56:25Z</time>
      </trkpt>
      <trkpt lat="48.607" lon="1.9725">
        <ele>108.8</ele>
        <time>2022-06-09T08:56:32Z</time>
      </trkpt>
      <trkpt lat="48.60704" lon="1.97235">
        <ele>108.7</ele>
        <time>2022-06-09T08:56:40Z</time>
      </trkpt>
      <trkpt lat="48.60708" lon="1.97223">
        <ele>108.5</ele>
        <time>2022-06-09T08:56:48Z</time>
      </trkpt>
      <trkpt lat="48.60709" lon="1.97209">
        <ele>108.5</ele>
        <time>2022-06-09T08:56:56Z</time>
      </trkpt>
      <trkpt lat="48.60709" lon="1.97193">
        <ele>108.5</ele>
        <time>2022-06-09T08:57:03Z</time>
      </trkpt>
      <trkpt lat="48.60708" lon="1.97178">
        <ele>108.5</ele>
        <time>2022-06-09T08:57:10Z</time>
      </trkpt>
      <trkpt lat="48.60706" lon="1.97164">
        <ele>108.7</ele>
        <time>2022-06-09T08:57:16Z</time>
      </trkpt>
      <trkpt lat="48.60707" lon="1.97149">
        <ele>109.2</ele>
        <time>2022-06-09T08:57:23Z</time>
      </trkpt>
      <trkpt lat="48.60708" lon="1.97135">
        <ele>109.5</ele>
        <time>2022-06-09T08:57:30Z</time>
      </trkpt>
      <trkpt lat="48.60707" lon="1.97121">
        <ele>109.5</ele>
        <time>2022-06-09T08:57:37Z</time>
      </trkpt>
      <trkpt lat="48.60704" lon="1.97107">
        <ele>109.8</ele>
        <time>2022-06-09T08:57:44Z</time>
      </trkpt>
      <trkpt lat="48.60698" lon="1.97096">
        <ele>110.4</ele>
        <time>2022-06-09T08:57:51Z</time>
      </trkpt>
      <trkpt lat="48.6069" lon="1.97086">
        <ele>111.2</ele>
        <time>2022-06-09T08:58:00Z</time>
      </trkpt>
      <trkpt lat="48.60684" lon="1.97075">
        <ele>112</ele>
        <time>2022-06-09T08:58:09Z</time>
      </trkpt>
      <trkpt lat="48.60676" lon="1.97065">
        <ele>112.5</ele>
        <time>2022-06-09T08:58:17Z</time>
      </trkpt>
      <trkpt lat="48.60668" lon="1.97057">
        <ele>112.9</ele>
        <time>2022-06-09T08:58:25Z</time>
      </trkpt>
      <trkpt lat="48.60662" lon="1.97047">
        <ele>113.6</ele>
        <time>2022-06-09T08:58:32Z</time>
      </trkpt>
      <trkpt lat="48.60654" lon="1.97038">
        <ele>114.3</ele>
        <time>2022-06-09T08:58:41Z</time>
      </trkpt>
      <trkpt lat="48.60647" lon="1.97027">
        <ele>114.7</ele>
        <time>2022-06-09T08:58:50Z</time>
      </trkpt>
      <trkpt lat="48.6064" lon="1.97016">
        <ele>115.3</ele>
        <time>2022-06-09T08:58:58Z</time>
      </trkpt>
      <trkpt lat="48.60634" lon="1.97005">
        <ele>116</ele>
        <time>2022-06-09T08:59:06Z</time>
      </trkpt>
      <trkpt lat="48.60625" lon="1.96997">
        <ele>116.5</ele>
        <time>2022-06-09T08:59:14Z</time>
      </trkpt>
      <trkpt lat="48.60616" lon="1.96992">
        <ele>117</ele>
        <time>2022-06-09T08:59:21Z</time>
      </trkpt>
      <trkpt lat="48.60607" lon="1.96985">
        <ele>117.8</ele>
        <time>2022-06-09T08:59:28Z</time>
      </trkpt>
      <trkpt lat="48.606" lon="1.96978">
        <ele>118.6</ele>
        <time>2022-06-09T08:59:36Z</time>
      </trkpt>
      <trkpt lat="48.60592" lon="1.96969">
        <ele>119.5</ele>
        <time>2022-06-09T08:59:46Z</time>
      </trkpt>
      <trkpt lat="48.60585" lon="1.96961">
        <ele>120.3</ele>
        <time>2022-06-09T08:59:56Z</time>
      </trkpt>
      <trkpt lat="48.60578" lon="1.96951">
        <ele>121.6</ele>
        <time>2022-06-09T09:00:05Z</time>
      </trkpt>
      <trkpt lat="48.6057" lon="1.96944">
        <ele>122.9</ele>
        <time>2022-06-09T09:00:13Z</time>
      </trkpt>
      <trkpt lat="48.60562" lon="1.96936">
        <ele>124.1</ele>
        <time>2022-06-09T09:00:21Z</time>
      </trkpt>
      <trkpt lat="48.60555" lon="1.96926">
        <ele>125.1</ele>
        <time>2022-06-09T09:00:30Z</time>
      </trkpt>
      <trkpt lat="48.60548" lon="1.96917">
        <ele>126.1</ele>
        <time>2022-06-09T09:00:40Z</time>
      </trkpt>
      <trkpt lat="48.6054" lon="1.96911">
        <ele>127.3</ele>
        <time>2022-06-09T09:00:49Z</time>
      </trkpt>
      <trkpt lat="48.60531" lon="1.96905">
        <ele>128.5</ele>
        <time>2022-06-09T09:00:59Z</time>
      </trkpt>
      <trkpt lat="48.60523" lon="1.96897">
        <ele>129.8</ele>
        <time>2022-06-09T09:01:10Z</time>
      </trkpt>
      <trkpt lat="48.60515" lon="1.96888">
        <ele>131.2</ele>
        <time>2022-06-09T09:01:22Z</time>
      </trkpt>
      <trkpt lat="48.60508" lon="1.96881">
        <ele>132.7</ele>
        <time>2022-06-09T09:01:31Z</time>
      </trkpt>
      <trkpt lat="48.60499" lon="1.96875">
        <ele>134.1</ele>
        <time>2022-06-09T09:01:38Z</time>
      </trkpt>
      <trkpt lat="48.60491" lon="1.96868">
        <ele>135.3</ele>
        <time>2022-06-09T09:01:47Z</time>
      </trkpt>
      <trkpt lat="48.60484" lon="1.96859">
        <ele>136.3</ele>
        <time>2022-06-09T09:01:57Z</time>
      </trkpt>
      <trkpt lat="48.60476" lon="1.9685">
        <ele>137.4</ele>
        <time>2022-06-09T09:02:06Z</time>
      </trkpt>
      <trkpt lat="48.60467" lon="1.96843">
        <ele>138.5</ele>
        <time>2022-06-09T09:02:14Z</time>
      </trkpt>
      <trkpt lat="48.6046" lon="1.96834">
        <ele>139.3</ele>
        <time>2022-06-09T09:02:23Z</time>
      </trkpt>
      <trkpt lat="48.60453" lon="1.96824">
        <ele>140.1</ele>
        <time>2022-06-09T09:02:32Z</time>
      </trkpt>
      <trkpt lat="48.60444" lon="1.96817">
        <ele>141</ele>
        <time>2022-06-09T09:02:39Z</time>
      </trkpt>
      <trkpt lat="48.60437" lon="1.96807">
        <ele>141.3</ele>
        <time>2022-06-09T09:02:48Z</time>
      </trkpt>
      <trkpt lat="48.60429" lon="1.96801">
        <ele>141.7</ele>
        <time>2022-06-09T09:02:56Z</time>
      </trkpt>
      <trkpt lat="48.60419" lon="1.96802">
        <ele>142</ele>
        <time>2022-06-09T09:03:12Z</time>
      </trkpt>
      <trkpt lat="48.60412" lon="1.96793">
        <ele>142.4</ele>
        <time>2022-06-09T09:04:20Z</time>
      </trkpt>
      <trkpt lat="48.6041" lon="1.96779">
        <ele>142.7</ele>
        <time>2022-06-09T09:04:37Z</time>
      </trkpt>
      <trkpt lat="48.60416" lon="1.96769">
        <ele>143</ele>
        <time>2022-06-09T09:04:49Z</time>
      </trkpt>
      <trkpt lat="48.60423" lon="1.9676">
        <ele>142.5</ele>
        <time>2022-06-09T09:04:58Z</time>
      </trkpt>
      <trkpt lat="48.6043" lon="1.96749">
        <ele>142.1</ele>
        <time>2022-06-09T09:05:07Z</time>
      </trkpt>
      <trkpt lat="48.60436" lon="1.96736">
        <ele>141.6</ele>
        <time>2022-06-09T09:05:15Z</time>
      </trkpt>
      <trkpt lat="48.60441" lon="1.96724">
        <ele>141.3</ele>
        <time>2022-06-09T09:05:23Z</time>
      </trkpt>
      <trkpt lat="48.60446" lon="1.96713">
        <ele>140.8</ele>
        <time>2022-06-09T09:05:29Z</time>
      </trkpt>
      <trkpt lat="48.60451" lon="1.96701">
        <ele>140.3</ele>
        <time>2022-06-09T09:05:36Z</time>
      </trkpt>
      <trkpt lat="48.60456" lon="1.96688">
        <ele>139.6</ele>
        <time>2022-06-09T09:05:44Z</time>
      </trkpt>
      <trkpt lat="48.60461" lon="1.96676">
        <ele>138.9</ele>
        <time>2022-06-09T09:05:51Z</time>
      </trkpt>
      <trkpt lat="48.60466" lon="1.96663">
        <ele>138.5</ele>
        <time>2022-06-09T09:05:59Z</time>
      </trkpt>
      <trkpt lat="48.60472" lon="1.96652">
        <ele>138</ele>
        <time>2022-06-09T09:06:08Z</time>
      </trkpt>
      <trkpt lat="48.60478" lon="1.9664">
        <ele>137.4</ele>
        <time>2022-06-09T09:06:16Z</time>
      </trkpt>
      <trkpt lat="48.60484" lon="1.96627">
        <ele>137.2</ele>
        <time>2022-06-09T09:06:23Z</time>
      </trkpt>
      <trkpt lat="48.6049" lon="1.96615">
        <ele>137</ele>
        <time>2022-06-09T09:06:29Z</time>
      </trkpt>
      <trkpt lat="48.60495" lon="1.96604">
        <ele>137</ele>
        <time>2022-06-09T09:06:35Z</time>
      </trkpt>
      <trkpt lat="48.605" lon="1.96591">
        <ele>137.5</ele>
        <time>2022-06-09T09:06:43Z</time>
      </trkpt>
      <trkpt lat="48.60496" lon="1.96578">
        <ele>138.3</ele>
        <time>2022-06-09T09:06:49Z</time>
      </trkpt>
      <trkpt lat="48.60492" lon="1.96564">
        <ele>138.5</ele>
        <time>2022-06-09T09:06:57Z</time>
      </trkpt>
      <trkpt lat="48.60488" lon="1.96553">
        <ele>139</ele>
        <time>2022-06-09T09:07:05Z</time>
      </trkpt>
      <trkpt lat="48.60481" lon="1.96542">
        <ele>139.9</ele>
        <time>2022-06-09T09:07:13Z</time>
      </trkpt>
      <trkpt lat="48.60473" lon="1.96534">
        <ele>140.8</ele>
        <time>2022-06-09T09:07:20Z</time>
      </trkpt>
      <trkpt lat="48.60465" lon="1.96523">
        <ele>141.3</ele>
        <time>2022-06-09T09:07:27Z</time>
      </trkpt>
      <trkpt lat="48.60456" lon="1.96515">
        <ele>141.6</ele>
        <time>2022-06-09T09:07:34Z</time>
      </trkpt>
      <trkpt lat="48.60448" lon="1.96507">
        <ele>141.9</ele>
        <time>2022-06-09T09:07:41Z</time>
      </trkpt>
      <trkpt lat="48.6044" lon="1.96497">
        <ele>142.2</ele>
        <time>2022-06-09T09:07:48Z</time>
      </trkpt>
      <trkpt lat="48.60432" lon="1.96489">
        <ele>142.7</ele>
        <time>2022-06-09T09:07:55Z</time>
      </trkpt>
      <trkpt lat="48.60424" lon="1.96481">
        <ele>142.9</ele>
        <time>2022-06-09T09:08:02Z</time>
      </trkpt>
      <trkpt lat="48.60417" lon="1.96472">
        <ele>143</ele>
        <time>2022-06-09T09:08:10Z</time>
      </trkpt>
      <trkpt lat="48.60408" lon="1.96466">
        <ele>143.5</ele>
        <time>2022-06-09T09:08:17Z</time>
      </trkpt>
      <trkpt lat="48.604" lon="1.96458">
        <ele>143.8</ele>
        <time>2022-06-09T09:08:24Z</time>
      </trkpt>
      <trkpt lat="48.60392" lon="1.9645">
        <ele>144</ele>
        <time>2022-06-09T09:08:31Z</time>
      </trkpt>
      <trkpt lat="48.60384" lon="1.96442">
        <ele>144</ele>
        <time>2022-06-09T09:08:38Z</time>
      </trkpt>
      <trkpt lat="48.60375" lon="1.96434">
        <ele>144</ele>
        <time>2022-06-09T09:08:45Z</time>
      </trkpt>
      <trkpt lat="48.60368" lon="1.96424">
        <ele>144</ele>
        <time>2022-06-09T09:08:52Z</time>
      </trkpt>
      <trkpt lat="48.60361" lon="1.96414">
        <ele>144</ele>
        <time>2022-06-09T09:08:59Z</time>
      </trkpt>
      <trkpt lat="48.60353" lon="1.96404">
        <ele>143.7</ele>
        <time>2022-06-09T09:09:07Z</time>
      </trkpt>
      <trkpt lat="48.60344" lon="1.96398">
        <ele>143.4</ele>
        <time>2022-06-09T09:09:14Z</time>
      </trkpt>
      <trkpt lat="48.60336" lon="1.96389">
        <ele>143.1</ele>
        <time>2022-06-09T09:09:21Z</time>
      </trkpt>
      <trkpt lat="48.60326" lon="1.96383">
        <ele>142.2</ele>
        <time>2022-06-09T09:09:28Z</time>
      </trkpt>
      <trkpt lat="48.60318" lon="1.96376">
        <ele>141.3</ele>
        <time>2022-06-09T09:09:35Z</time>
      </trkpt>
      <trkpt lat="48.6031" lon="1.96369">
        <ele>140.5</ele>
        <time>2022-06-09T09:09:41Z</time>
      </trkpt>
      <trkpt lat="48.60301" lon="1.9636">
        <ele>139.7</ele>
        <time>2022-06-09T09:09:50Z</time>
      </trkpt>
      <trkpt lat="48.60293" lon="1.96352">
        <ele>139.3</ele>
        <time>2022-06-09T09:09:56Z</time>
      </trkpt>
      <trkpt lat="48.60284" lon="1.96344">
        <ele>138.9</ele>
        <time>2022-06-09T09:10:02Z</time>
      </trkpt>
      <trkpt lat="48.60276" lon="1.96337">
        <ele>138.9</ele>
        <time>2022-06-09T09:10:08Z</time>
      </trkpt>
      <trkpt lat="48.60268" lon="1.96329">
        <ele>139.2</ele>
        <time>2022-06-09T09:10:14Z</time>
      </trkpt>
      <trkpt lat="48.60259" lon="1.96321">
        <ele>139.5</ele>
        <time>2022-06-09T09:10:21Z</time>
      </trkpt>
      <trkpt lat="48.60252" lon="1.9631">
        <ele>139.8</ele>
        <time>2022-06-09T09:10:28Z</time>
      </trkpt>
      <trkpt lat="48.60242" lon="1.96304">
        <ele>140</ele>
        <time>2022-06-09T09:10:36Z</time>
      </trkpt>
      <trkpt lat="48.60234" lon="1.96297">
        <ele>140.1</ele>
        <time>2022-06-09T09:10:44Z</time>
      </trkpt>
      <trkpt lat="48.60224" lon="1.96293">
        <ele>140</ele>
        <time>2022-06-09T09:10:51Z</time>
      </trkpt>
      <trkpt lat="48.60217" lon="1.96283">
        <ele>139.5</ele>
        <time>2022-06-09T09:10:58Z</time>
      </trkpt>
      <trkpt lat="48.60209" lon="1.96275">
        <ele>138.7</ele>
        <time>2022-06-09T09:11:07Z</time>
      </trkpt>
      <trkpt lat="48.60201" lon="1.96266">
        <ele>138</ele>
        <time>2022-06-09T09:11:15Z</time>
      </trkpt>
      <trkpt lat="48.60193" lon="1.96259">
        <ele>137.5</ele>
        <time>2022-06-09T09:11:22Z</time>
      </trkpt>
      <trkpt lat="48.60186" lon="1.9625">
        <ele>136.8</ele>
        <time>2022-06-09T09:11:28Z</time>
      </trkpt>
      <trkpt lat="48.60177" lon="1.96242">
        <ele>135.1</ele>
        <time>2022-06-09T09:11:35Z</time>
      </trkpt>
      <trkpt lat="48.60169" lon="1.96235">
        <ele>133.4</ele>
        <time>2022-06-09T09:11:43Z</time>
      </trkpt>
      <trkpt lat="48.60162" lon="1.96226">
        <ele>131.9</ele>
        <time>2022-06-09T09:11:59Z</time>
      </trkpt>
      <trkpt lat="48.60155" lon="1.96217">
        <ele>130.8</ele>
        <time>2022-06-09T09:12:08Z</time>
      </trkpt>
      <trkpt lat="48.60153" lon="1.96203">
        <ele>129.9</ele>
        <time>2022-06-09T09:12:17Z</time>
      </trkpt>
      <trkpt lat="48.60156" lon="1.9619">
        <ele>129.5</ele>
        <time>2022-06-09T09:12:25Z</time>
      </trkpt>
      <trkpt lat="48.60155" lon="1.96175">
        <ele>129.2</ele>
        <time>2022-06-09T09:12:35Z</time>
      </trkpt>
      <trkpt lat="48.60157" lon="1.96161">
        <ele>128.9</ele>
        <time>2022-06-09T09:12:43Z</time>
      </trkpt>
      <trkpt lat="48.60158" lon="1.96147">
        <ele>128.6</ele>
        <time>2022-06-09T09:12:50Z</time>
      </trkpt>
      <trkpt lat="48.60159" lon="1.96132">
        <ele>128.2</ele>
        <time>2022-06-09T09:12:57Z</time>
      </trkpt>
      <trkpt lat="48.60159" lon="1.96119">
        <ele>127.7</ele>
        <time>2022-06-09T09:13:05Z</time>
      </trkpt>
      <trkpt lat="48.6016" lon="1.96104">
        <ele>127.2</ele>
        <time>2022-06-09T09:13:12Z</time>
      </trkpt>
      <trkpt lat="48.60159" lon="1.9609">
        <ele>126.7</ele>
        <time>2022-06-09T09:13:19Z</time>
      </trkpt>
      <trkpt lat="48.60158" lon="1.96075">
        <ele>126</ele>
        <time>2022-06-09T09:13:27Z</time>
      </trkpt>
      <trkpt lat="48.60159" lon="1.96061">
        <ele>125.4</ele>
        <time>2022-06-09T09:13:33Z</time>
      </trkpt>
      <trkpt lat="48.6016" lon="1.96047">
        <ele>125</ele>
        <time>2022-06-09T09:13:39Z</time>
      </trkpt>
      <trkpt lat="48.60162" lon="1.96032">
        <ele>124.6</ele>
        <time>2022-06-09T09:13:45Z</time>
      </trkpt>
      <trkpt lat="48.60165" lon="1.96019">
        <ele>124.5</ele>
        <time>2022-06-09T09:13:53Z</time>
      </trkpt>
      <trkpt lat="48.60172" lon="1.96009">
        <ele>124.9</ele>
        <time>2022-06-09T09:14:05Z</time>
      </trkpt>
      <trkpt lat="48.60178" lon="1.95997">
        <ele>124.9</ele>
        <time>2022-06-09T09:14:14Z</time>
      </trkpt>
      <trkpt lat="48.60184" lon="1.95985">
        <ele>123.9</ele>
        <time>2022-06-09T09:14:21Z</time>
      </trkpt>
      <trkpt lat="48.60188" lon="1.95973">
        <ele>122.6</ele>
        <time>2022-06-09T09:14:27Z</time>
      </trkpt>
      <trkpt lat="48.60193" lon="1.95959">
        <ele>121.9</ele>
        <time>2022-06-09T09:14:34Z</time>
      </trkpt>
      <trkpt lat="48.60198" lon="1.95947">
        <ele>121.1</ele>
        <time>2022-06-09T09:14:41Z</time>
      </trkpt>
      <trkpt lat="48.60205" lon="1.95938">
        <ele>119.9</ele>
        <time>2022-06-09T09:14:49Z</time>
      </trkpt>
      <trkpt lat="48.6021" lon="1.95925">
        <ele>118.3</ele>
        <time>2022-06-09T09:14:57Z</time>
      </trkpt>
      <trkpt lat="48.60217" lon="1.95915">
        <ele>117.1</ele>
        <time>2022-06-09T09:15:05Z</time>
      </trkpt>
      <trkpt lat="48.60222" lon="1.95903">
        <ele>116</ele>
        <time>2022-06-09T09:15:13Z</time>
      </trkpt>
      <trkpt lat="48.60228" lon="1.95892">
        <ele>115</ele>
        <time>2022-06-09T09:15:22Z</time>
      </trkpt>
      <trkpt lat="48.60235" lon="1.95883">
        <ele>114.3</ele>
        <time>2022-06-09T09:15:30Z</time>
      </trkpt>
      <trkpt lat="48.60237" lon="1.95868">
        <ele>113.7</ele>
        <time>2022-06-09T09:15:37Z</time>
      </trkpt>
      <trkpt lat="48.60228" lon="1.95862">
        <ele>113.8</ele>
        <time>2022-06-09T09:15:58Z</time>
      </trkpt>
      <trkpt lat="48.60219" lon="1.95864">
        <ele>114.1</ele>
        <time>2022-06-09T09:16:06Z</time>
      </trkpt>
      <trkpt lat="48.60209" lon="1.95865">
        <ele>114.2</ele>
        <time>2022-06-09T09:16:13Z</time>
      </trkpt>
      <trkpt lat="48.602" lon="1.95867">
        <ele>114.4</ele>
        <time>2022-06-09T09:16:19Z</time>
      </trkpt>
      <trkpt lat="48.60191" lon="1.95871">
        <ele>114.8</ele>
        <time>2022-06-09T09:16:26Z</time>
      </trkpt>
      <trkpt lat="48.60181" lon="1.95874">
        <ele>115.2</ele>
        <time>2022-06-09T09:16:34Z</time>
      </trkpt>
      <trkpt lat="48.60172" lon="1.95877">
        <ele>115.5</ele>
        <time>2022-06-09T09:16:40Z</time>
      </trkpt>
      <trkpt lat="48.60163" lon="1.95878">
        <ele>115.7</ele>
        <time>2022-06-09T09:16:44Z</time>
      </trkpt>
      <trkpt lat="48.60154" lon="1.95874">
        <ele>115.7</ele>
        <time>2022-06-09T09:16:52Z</time>
      </trkpt>
      <trkpt lat="48.60144" lon="1.95871">
        <ele>115.9</ele>
        <time>2022-06-09T09:17:00Z</time>
      </trkpt>
      <trkpt lat="48.60135" lon="1.95872">
        <ele>116.1</ele>
        <time>2022-06-09T09:17:08Z</time>
      </trkpt>
      <trkpt lat="48.60126" lon="1.95875">
        <ele>116.5</ele>
        <time>2022-06-09T09:17:14Z</time>
      </trkpt>
      <trkpt lat="48.60116" lon="1.95874">
        <ele>116.8</ele>
        <time>2022-06-09T09:17:21Z</time>
      </trkpt>
      <trkpt lat="48.60106" lon="1.95871">
        <ele>117.1</ele>
        <time>2022-06-09T09:17:29Z</time>
      </trkpt>
      <trkpt lat="48.60096" lon="1.95866">
        <ele>117.4</ele>
        <time>2022-06-09T09:17:36Z</time>
      </trkpt>
      <trkpt lat="48.60088" lon="1.95859">
        <ele>117.6</ele>
        <time>2022-06-09T09:17:44Z</time>
      </trkpt>
      <trkpt lat="48.60079" lon="1.9585">
        <ele>118</ele>
        <time>2022-06-09T09:17:53Z</time>
      </trkpt>
      <trkpt lat="48.60073" lon="1.9584">
        <ele>118.1</ele>
        <time>2022-06-09T09:18:00Z</time>
      </trkpt>
      <trkpt lat="48.60066" lon="1.95828">
        <ele>118.2</ele>
        <time>2022-06-09T09:18:07Z</time>
      </trkpt>
      <trkpt lat="48.6006" lon="1.95817">
        <ele>118.6</ele>
        <time>2022-06-09T09:18:14Z</time>
      </trkpt>
      <trkpt lat="48.60055" lon="1.95803">
        <ele>119</ele>
        <time>2022-06-09T09:18:22Z</time>
      </trkpt>
      <trkpt lat="48.60049" lon="1.95791">
        <ele>119.2</ele>
        <time>2022-06-09T09:18:30Z</time>
      </trkpt>
      <trkpt lat="48.60044" lon="1.95779">
        <ele>119.6</ele>
        <time>2022-06-09T09:18:37Z</time>
      </trkpt>
      <trkpt lat="48.60039" lon="1.95767">
        <ele>120.1</ele>
        <time>2022-06-09T09:18:43Z</time>
      </trkpt>
      <trkpt lat="48.60035" lon="1.95755">
        <ele>120.4</ele>
        <time>2022-06-09T09:18:49Z</time>
      </trkpt>
      <trkpt lat="48.60029" lon="1.95742">
        <ele>120.6</ele>
        <time>2022-06-09T09:18:56Z</time>
      </trkpt>
      <trkpt lat="48.60025" lon="1.95729">
        <ele>120.6</ele>
        <time>2022-06-09T09:19:03Z</time>
      </trkpt>
      <trkpt lat="48.60019" lon="1.95718">
        <ele>121.1</ele>
        <time>2022-06-09T09:19:10Z</time>
      </trkpt>
      <trkpt lat="48.60011" lon="1.95709">
        <ele>121.9</ele>
        <time>2022-06-09T09:19:16Z</time>
      </trkpt>
      <trkpt lat="48.60003" lon="1.95701">
        <ele>122.8</ele>
        <time>2022-06-09T09:19:23Z</time>
      </trkpt>
      <trkpt lat="48.59995" lon="1.95693">
        <ele>123.3</ele>
        <time>2022-06-09T09:19:30Z</time>
      </trkpt>
      <trkpt lat="48.59987" lon="1.95685">
        <ele>123.6</ele>
        <time>2022-06-09T09:19:38Z</time>
      </trkpt>
      <trkpt lat="48.59978" lon="1.95679">
        <ele>124.1</ele>
        <time>2022-06-09T09:19:48Z</time>
      </trkpt>
      <trkpt lat="48.59968" lon="1.95676">
        <ele>124.5</ele>
        <time>2022-06-09T09:19:55Z</time>
      </trkpt>
      <trkpt lat="48.59959" lon="1.95673">
        <ele>124.7</ele>
        <time>2022-06-09T09:20:03Z</time>
      </trkpt>
      <trkpt lat="48.59949" lon="1.95676">
        <ele>125.1</ele>
        <time>2022-06-09T09:20:11Z</time>
      </trkpt>
      <trkpt lat="48.5994" lon="1.95676">
        <ele>125.2</ele>
        <time>2022-06-09T09:20:16Z</time>
      </trkpt>
      <trkpt lat="48.5993" lon="1.95674">
        <ele>124.7</ele>
        <time>2022-06-09T09:20:22Z</time>
      </trkpt>
      <trkpt lat="48.59921" lon="1.95675">
        <ele>124.5</ele>
        <time>2022-06-09T09:20:29Z</time>
      </trkpt>
      <trkpt lat="48.59911" lon="1.95677">
        <ele>124.1</ele>
        <time>2022-06-09T09:20:37Z</time>
      </trkpt>
      <trkpt lat="48.59902" lon="1.9568">
        <ele>123.7</ele>
        <time>2022-06-09T09:20:42Z</time>
      </trkpt>
      <trkpt lat="48.59893" lon="1.95679">
        <ele>123.2</ele>
        <time>2022-06-09T09:20:50Z</time>
      </trkpt>
      <trkpt lat="48.59883" lon="1.95678">
        <ele>122.6</ele>
        <time>2022-06-09T09:20:59Z</time>
      </trkpt>
      <trkpt lat="48.59875" lon="1.95686">
        <ele>122.3</ele>
        <time>2022-06-09T09:21:25Z</time>
      </trkpt>
      <trkpt lat="48.59869" lon="1.95698">
        <ele>122.4</ele>
        <time>2022-06-09T09:21:33Z</time>
      </trkpt>
      <trkpt lat="48.59863" lon="1.95709">
        <ele>122.6</ele>
        <time>2022-06-09T09:21:40Z</time>
      </trkpt>
      <trkpt lat="48.59856" lon="1.95717">
        <ele>122.6</ele>
        <time>2022-06-09T09:21:45Z</time>
      </trkpt>
      <trkpt lat="48.59848" lon="1.95726">
        <ele>122.6</ele>
        <time>2022-06-09T09:21:52Z</time>
      </trkpt>
      <trkpt lat="48.59841" lon="1.95736">
        <ele>122.6</ele>
        <time>2022-06-09T09:21:59Z</time>
      </trkpt>
      <trkpt lat="48.59834" lon="1.95746">
        <ele>122.9</ele>
        <time>2022-06-09T09:22:06Z</time>
      </trkpt>
      <trkpt lat="48.59826" lon="1.95756">
        <ele>122.8</ele>
        <time>2022-06-09T09:22:14Z</time>
      </trkpt>
      <trkpt lat="48.5982" lon="1.95767">
        <ele>122.8</ele>
        <time>2022-06-09T09:22:20Z</time>
      </trkpt>
      <trkpt lat="48.59813" lon="1.95775">
        <ele>122.9</ele>
        <time>2022-06-09T09:22:28Z</time>
      </trkpt>
      <trkpt lat="48.59805" lon="1.95784">
        <ele>123</ele>
        <time>2022-06-09T09:22:37Z</time>
      </trkpt>
      <trkpt lat="48.59798" lon="1.95794">
        <ele>122.9</ele>
        <time>2022-06-09T09:22:45Z</time>
      </trkpt>
      <trkpt lat="48.59793" lon="1.95807">
        <ele>123.1</ele>
        <time>2022-06-09T09:22:52Z</time>
      </trkpt>
      <trkpt lat="48.5979" lon="1.95821">
        <ele>123.5</ele>
        <time>2022-06-09T09:22:57Z</time>
      </trkpt>
      <trkpt lat="48.59785" lon="1.95834">
        <ele>124</ele>
        <time>2022-06-09T09:23:03Z</time>
      </trkpt>
      <trkpt lat="48.59781" lon="1.95847">
        <ele>124.5</ele>
        <time>2022-06-09T09:23:10Z</time>
      </trkpt>
      <trkpt lat="48.59777" lon="1.95861">
        <ele>125</ele>
        <time>2022-06-09T09:23:17Z</time>
      </trkpt>
      <trkpt lat="48.59772" lon="1.95873">
        <ele>125.2</ele>
        <time>2022-06-09T09:23:24Z</time>
      </trkpt>
      <trkpt lat="48.59766" lon="1.95886">
        <ele>125.4</ele>
        <time>2022-06-09T09:23:31Z</time>
      </trkpt>
      <trkpt lat="48.5976" lon="1.95898">
        <ele>125.7</ele>
        <time>2022-06-09T09:23:38Z</time>
      </trkpt>
      <trkpt lat="48.59756" lon="1.95911">
        <ele>126</ele>
        <time>2022-06-09T09:23:45Z</time>
      </trkpt>
      <trkpt lat="48.59751" lon="1.95923">
        <ele>126.5</ele>
        <time>2022-06-09T09:23:52Z</time>
      </trkpt>
      <trkpt lat="48.59743" lon="1.95933">
        <ele>127</ele>
        <time>2022-06-09T09:24:00Z</time>
      </trkpt>
      <trkpt lat="48.59737" lon="1.95945">
        <ele>127.5</ele>
        <time>2022-06-09T09:24:07Z</time>
      </trkpt>
      <trkpt lat="48.59731" lon="1.95956">
        <ele>127.7</ele>
        <time>2022-06-09T09:24:13Z</time>
      </trkpt>
      <trkpt lat="48.59727" lon="1.9597">
        <ele>128.1</ele>
        <time>2022-06-09T09:24:20Z</time>
      </trkpt>
      <trkpt lat="48.59722" lon="1.95983">
        <ele>128.4</ele>
        <time>2022-06-09T09:24:28Z</time>
      </trkpt>
      <trkpt lat="48.59718" lon="1.95997">
        <ele>128.8</ele>
        <time>2022-06-09T09:24:34Z</time>
      </trkpt>
      <trkpt lat="48.59712" lon="1.96009">
        <ele>129</ele>
        <time>2022-06-09T09:24:43Z</time>
      </trkpt>
      <trkpt lat="48.59706" lon="1.96021">
        <ele>129.2</ele>
        <time>2022-06-09T09:24:51Z</time>
      </trkpt>
      <trkpt lat="48.59701" lon="1.96032">
        <ele>129.5</ele>
        <time>2022-06-09T09:24:59Z</time>
      </trkpt>
      <trkpt lat="48.59694" lon="1.96042">
        <ele>130</ele>
        <time>2022-06-09T09:25:10Z</time>
      </trkpt>
      <trkpt lat="48.59686" lon="1.96049">
        <ele>130.8</ele>
        <time>2022-06-09T09:25:19Z</time>
      </trkpt>
      <trkpt lat="48.59681" lon="1.9606">
        <ele>131.9</ele>
        <time>2022-06-09T09:25:28Z</time>
      </trkpt>
      <trkpt lat="48.59677" lon="1.96073">
        <ele>133.1</ele>
        <time>2022-06-09T09:25:35Z</time>
      </trkpt>
      <trkpt lat="48.59673" lon="1.96087">
        <ele>134.2</ele>
        <time>2022-06-09T09:25:43Z</time>
      </trkpt>
      <trkpt lat="48.59668" lon="1.96098">
        <ele>135.1</ele>
        <time>2022-06-09T09:25:51Z</time>
      </trkpt>
      <trkpt lat="48.59663" lon="1.96111">
        <ele>135.8</ele>
        <time>2022-06-09T09:26:00Z</time>
      </trkpt>
      <trkpt lat="48.59657" lon="1.96122">
        <ele>136.4</ele>
        <time>2022-06-09T09:26:07Z</time>
      </trkpt>
      <trkpt lat="48.59652" lon="1.96135">
        <ele>137.2</ele>
        <time>2022-06-09T09:26:14Z</time>
      </trkpt>
      <trkpt lat="48.59647" lon="1.96146">
        <ele>138.1</ele>
        <time>2022-06-09T09:26:22Z</time>
      </trkpt>
      <trkpt lat="48.5964" lon="1.96158">
        <ele>139.1</ele>
        <time>2022-06-09T09:26:30Z</time>
      </trkpt>
      <trkpt lat="48.59634" lon="1.96169">
        <ele>140.4</ele>
        <time>2022-06-09T09:26:39Z</time>
      </trkpt>
      <trkpt lat="48.59629" lon="1.96181">
        <ele>141.9</ele>
        <time>2022-06-09T09:26:47Z</time>
      </trkpt>
      <trkpt lat="48.59624" lon="1.96193">
        <ele>143.3</ele>
        <time>2022-06-09T09:26:55Z</time>
      </trkpt>
      <trkpt lat="48.5962" lon="1.96207">
        <ele>145.1</ele>
        <time>2022-06-09T09:27:03Z</time>
      </trkpt>
      <trkpt lat="48.59614" lon="1.96219">
        <ele>146.7</ele>
        <time>2022-06-09T09:27:15Z</time>
      </trkpt>
      <trkpt lat="48.59611" lon="1.96232">
        <ele>148.4</ele>
        <time>2022-06-09T09:27:24Z</time>
      </trkpt>
      <trkpt lat="48.59605" lon="1.96244">
        <ele>149.5</ele>
        <time>2022-06-09T09:27:33Z</time>
      </trkpt>
      <trkpt lat="48.59599" lon="1.96254">
        <ele>150.3</ele>
        <time>2022-06-09T09:27:42Z</time>
      </trkpt>
      <trkpt lat="48.59593" lon="1.96266">
        <ele>151.3</ele>
        <time>2022-06-09T09:27:51Z</time>
      </trkpt>
      <trkpt lat="48.59587" lon="1.96276">
        <ele>152.2</ele>
        <time>2022-06-09T09:27:59Z</time>
      </trkpt>
      <trkpt lat="48.59581" lon="1.96288">
        <ele>152.8</ele>
        <time>2022-06-09T09:28:06Z</time>
      </trkpt>
      <trkpt lat="48.59576" lon="1.96301">
        <ele>153.4</ele>
        <time>2022-06-09T09:28:14Z</time>
      </trkpt>
      <trkpt lat="48.5957" lon="1.96313">
        <ele>153.7</ele>
        <time>2022-06-09T09:28:21Z</time>
      </trkpt>
      <trkpt lat="48.59565" lon="1.96324">
        <ele>153.7</ele>
        <time>2022-06-09T09:28:28Z</time>
      </trkpt>
      <trkpt lat="48.5956" lon="1.96336">
        <ele>153.8</ele>
        <time>2022-06-09T09:28:35Z</time>
      </trkpt>
      <trkpt lat="48.59554" lon="1.96348">
        <ele>153.8</ele>
        <time>2022-06-09T09:28:43Z</time>
      </trkpt>
      <trkpt lat="48.59548" lon="1.9636">
        <ele>153.6</ele>
        <time>2022-06-09T09:28:51Z</time>
      </trkpt>
      <trkpt lat="48.59543" lon="1.96371">
        <ele>152.9</ele>
        <time>2022-06-09T09:28:58Z</time>
      </trkpt>
      <trkpt lat="48.59538" lon="1.96384">
        <ele>152.4</ele>
        <time>2022-06-09T09:29:05Z</time>
      </trkpt>
      <trkpt lat="48.59532" lon="1.96397">
        <ele>151.6</ele>
        <time>2022-06-09T09:29:13Z</time>
      </trkpt>
      <trkpt lat="48.59526" lon="1.96409">
        <ele>150.7</ele>
        <time>2022-06-09T09:29:20Z</time>
      </trkpt>
      <trkpt lat="48.59521" lon="1.96421">
        <ele>149.9</ele>
        <time>2022-06-09T09:29:27Z</time>
      </trkpt>
      <trkpt lat="48.59515" lon="1.96431">
        <ele>149.2</ele>
        <time>2022-06-09T09:29:34Z</time>
      </trkpt>
      <trkpt lat="48.59511" lon="1.96444">
        <ele>149</ele>
        <time>2022-06-09T09:29:42Z</time>
      </trkpt>
      <trkpt lat="48.59506" lon="1.96455">
        <ele>148.3</ele>
        <time>2022-06-09T09:29:50Z</time>
      </trkpt>
      <trkpt lat="48.59499" lon="1.96466">
        <ele>147.5</ele>
        <time>2022-06-09T09:29:58Z</time>
      </trkpt>
      <trkpt lat="48.59492" lon="1.96476">
        <ele>146.6</ele>
        <time>2022-06-09T09:30:05Z</time>
      </trkpt>
      <trkpt lat="48.59486" lon="1.96486">
        <ele>145.5</ele>
        <time>2022-06-09T09:30:12Z</time>
      </trkpt>
      <trkpt lat="48.59481" lon="1.96499">
        <ele>144.5</ele>
        <time>2022-06-09T09:30:19Z</time>
      </trkpt>
      <trkpt lat="48.59475" lon="1.9651">
        <ele>143.5</ele>
        <time>2022-06-09T09:30:26Z</time>
      </trkpt>
      <trkpt lat="48.59469" lon="1.96521">
        <ele>142.7</ele>
        <time>2022-06-09T09:30:33Z</time>
      </trkpt>
      <trkpt lat="48.59464" lon="1.96533">
        <ele>142.1</ele>
        <time>2022-06-09T09:30:40Z</time>
      </trkpt>
      <trkpt lat="48.5946" lon="1.96545">
        <ele>141.9</ele>
        <time>2022-06-09T09:30:47Z</time>
      </trkpt>
      <trkpt lat="48.59455" lon="1.96557">
        <ele>141.8</ele>
        <time>2022-06-09T09:30:54Z</time>
      </trkpt>
      <trkpt lat="48.59449" lon="1.96569">
        <ele>141.8</ele>
        <time>2022-06-09T09:31:01Z</time>
      </trkpt>
      <trkpt lat="48.59443" lon="1.9658">
        <ele>141.8</ele>
        <time>2022-06-09T09:31:08Z</time>
      </trkpt>
      <trkpt lat="48.59437" lon="1.96591">
        <ele>141.7</ele>
        <time>2022-06-09T09:31:53Z</time>
      </trkpt>
      <trkpt lat="48.59427" lon="1.96591">
        <ele>141</ele>
        <time>2022-06-09T09:32:07Z</time>
      </trkpt>
      <trkpt lat="48.59418" lon="1.96585">
        <ele>140.2</ele>
        <time>2022-06-09T09:32:16Z</time>
      </trkpt>
      <trkpt lat="48.59411" lon="1.96575">
        <ele>139.2</ele>
        <time>2022-06-09T09:32:26Z</time>
      </trkpt>
      <trkpt lat="48.59402" lon="1.96568">
        <ele>138.1</ele>
        <time>2022-06-09T09:32:35Z</time>
      </trkpt>
      <trkpt lat="48.59393" lon="1.96561">
        <ele>136.9</ele>
        <time>2022-06-09T09:32:42Z</time>
      </trkpt>
      <trkpt lat="48.59385" lon="1.96554">
        <ele>135.5</ele>
        <time>2022-06-09T09:32:50Z</time>
      </trkpt>
      <trkpt lat="48.59377" lon="1.96547">
        <ele>134.5</ele>
        <time>2022-06-09T09:32:57Z</time>
      </trkpt>
      <trkpt lat="48.5937" lon="1.96538">
        <ele>133.8</ele>
        <time>2022-06-09T09:33:04Z</time>
      </trkpt>
      <trkpt lat="48.59362" lon="1.96528">
        <ele>133.1</ele>
        <time>2022-06-09T09:33:12Z</time>
      </trkpt>
      <trkpt lat="48.59355" lon="1.9652">
        <ele>132.3</ele>
        <time>2022-06-09T09:33:20Z</time>
      </trkpt>
      <trkpt lat="48.59347" lon="1.96509">
        <ele>131.7</ele>
        <time>2022-06-09T09:33:29Z</time>
      </trkpt>
      <trkpt lat="48.59339" lon="1.965">
        <ele>131.2</ele>
        <time>2022-06-09T09:33:36Z</time>
      </trkpt>
      <trkpt lat="48.59331" lon="1.96494">
        <ele>130.7</ele>
        <time>2022-06-09T09:33:43Z</time>
      </trkpt>
      <trkpt lat="48.59321" lon="1.96489">
        <ele>129.9</ele>
        <time>2022-06-09T09:33:50Z</time>
      </trkpt>
      <trkpt lat="48.59312" lon="1.96482">
        <ele>129.2</ele>
        <time>2022-06-09T09:33:58Z</time>
      </trkpt>
      <trkpt lat="48.59304" lon="1.96478">
        <ele>128.6</ele>
        <time>2022-06-09T09:34:05Z</time>
      </trkpt>
      <trkpt lat="48.59295" lon="1.96474">
        <ele>127.4</ele>
        <time>2022-06-09T09:34:14Z</time>
      </trkpt>
      <trkpt lat="48.59285" lon="1.96473">
        <ele>126</ele>
        <time>2022-06-09T09:34:22Z</time>
      </trkpt>
      <trkpt lat="48.59275" lon="1.96475">
        <ele>124.7</ele>
        <time>2022-06-09T09:34:31Z</time>
      </trkpt>
      <trkpt lat="48.59265" lon="1.96479">
        <ele>123.6</ele>
        <time>2022-06-09T09:34:38Z</time>
      </trkpt>
      <trkpt lat="48.59257" lon="1.96486">
        <ele>122.8</ele>
        <time>2022-06-09T09:34:44Z</time>
      </trkpt>
      <trkpt lat="48.5925" lon="1.96493">
        <ele>121.9</ele>
        <time>2022-06-09T09:34:50Z</time>
      </trkpt>
      <trkpt lat="48.59242" lon="1.96502">
        <ele>121.1</ele>
        <time>2022-06-09T09:34:57Z</time>
      </trkpt>
      <trkpt lat="48.59234" lon="1.96508">
        <ele>120.2</ele>
        <time>2022-06-09T09:35:04Z</time>
      </trkpt>
      <trkpt lat="48.59226" lon="1.96515">
        <ele>119.3</ele>
        <time>2022-06-09T09:35:12Z</time>
      </trkpt>
      <trkpt lat="48.59217" lon="1.96523">
        <ele>118.6</ele>
        <time>2022-06-09T09:35:20Z</time>
      </trkpt>
      <trkpt lat="48.59209" lon="1.96531">
        <ele>118.1</ele>
        <time>2022-06-09T09:35:28Z</time>
      </trkpt>
      <trkpt lat="48.59203" lon="1.96541">
        <ele>117.6</ele>
        <time>2022-06-09T09:35:36Z</time>
      </trkpt>
      <trkpt lat="48.59197" lon="1.96551">
        <ele>117.2</ele>
        <time>2022-06-09T09:35:43Z</time>
      </trkpt>
      <trkpt lat="48.5919" lon="1.96562">
        <ele>116.7</ele>
        <time>2022-06-09T09:35:50Z</time>
      </trkpt>
      <trkpt lat="48.59183" lon="1.96569">
        <ele>116.4</ele>
        <time>2022-06-09T09:35:59Z</time>
      </trkpt>
      <trkpt lat="48.59175" lon="1.96577">
        <ele>116.1</ele>
        <time>2022-06-09T09:36:20Z</time>
      </trkpt>
      <trkpt lat="48.59174" lon="1.9659">
        <ele>116.3</ele>
        <time>2022-06-09T09:36:26Z</time>
      </trkpt>
    </trkseg>
  </trk>
</gpx>